Time,TemperatureF,DewpointF,PressureIn,WindDirection,WindDirectionDegrees,WindSpeedMPH,WindSpeedGustMPH,Humidity,HourlyPrecipIn,Conditions,Clouds,dailyrainin,SoftwareType,DateUTC
2013-03-19 00:00:00,69.0,69.0,29.85,ESE,112,3.0,3.0,100,0.00,,,0.00,TxWx,2013-03-19 06:00:00,
2013-03-19 00:01:00,69.0,69.0,29.85,ESE,112,5.0,5.0,100,0.00,,,0.00,TxWx,2013-03-19 06:01:00,
2013-03-19 00:02:00,69.0,69.0,29.85,ESE,112,5.0,5.0,100,0.00,,,0.00,TxWx,2013-03-19 06:02:00,
2013-03-19 00:05:00,69.0,69.0,29.85,East,90,4.0,5.0,100,0.00,,,0.00,TxWx,2013-03-19 06:05:00,
2013-03-19 00:07:00,69.0,69.0,29.85,SE,135,5.0,5.0,100,0.00,,,0.00,TxWx,2013-03-19 06:07:00,
2013-03-19 00:08:00,69.0,69.0,29.85,SE,135,5.0,5.0,100,0.00,,,0.00,TxWx,2013-03-19 06:08:00,
2013-03-19 00:10:00,69.0,69.0,29.85,ESE,112,7.0,8.0,100,0.00,,,0.00,TxWx,2013-03-19 06:10:00,
2013-03-19 00:12:00,69.0,69.0,29.85,ESE,112,3.0,3.0,100,0.00,,,0.00,TxWx,2013-03-19 06:12:00,
2013-03-19 00:13:00,69.0,69.0,29.85,East,90,3.0,3.0,100,0.00,,,0.00,TxWx,2013-03-19 06:13:00,
2013-03-19 00:15:00,69.0,69.0,29.85,ESE,112,5.0,5.0,100,0.00,,,0.00,TxWx,2013-03-19 06:15:00,
2013-03-19 00:19:00,69.0,69.0,29.85,ESE,112,6.0,6.0,100,0.00,,,0.00,TxWx,2013-03-19 06:19:00,
2013-03-19 00:21:00,69.0,69.0,29.85,SE,135,5.0,5.0,100,0.00,,,0.00,TxWx,2013-03-19 06:21:00,
2013-03-19 00:25:00,69.0,69.0,29.85,East,90,4.0,4.0,100,0.00,,,0.00,TxWx,2013-03-19 06:25:00,
2013-03-19 00:27:00,69.0,69.0,29.86,East,90,6.0,6.0,100,0.00,,,0.00,TxWx,2013-03-19 06:27:00,
2013-03-19 00:29:00,69.0,69.0,29.86,East,90,3.0,3.0,100,0.00,,,0.00,TxWx,2013-03-19 06:29:00,
2013-03-19 00:30:00,69.0,69.0,29.86,ESE,112,3.0,3.0,100,0.00,,,0.00,TxWx,2013-03-19 06:30:00,
2013-03-19 00:32:00,69.0,69.0,29.86,NNE,22,1.0,2.0,100,0.00,,,0.00,TxWx,2013-03-19 06:32:00,
2013-03-19 00:33:00,69.0,69.0,29.86,ENE,67,3.0,3.0,100,0.00,,,0.00,TxWx,2013-03-19 06:33:00,
2013-03-19 00:37:00,69.0,69.0,29.86,NE,45,3.0,3.0,100,0.00,,,0.00,TxWx,2013-03-19 06:37:00,
2013-03-19 00:38:00,69.0,69.0,29.86,ESE,112,5.0,5.0,100,0.00,,,0.00,TxWx,2013-03-19 06:38:00,
2013-03-19 00:42:00,68.0,68.0,29.86,NE,45,3.0,3.0,100,0.00,,,0.00,TxWx,2013-03-19 06:42:00,
2013-03-19 00:43:00,69.0,69.0,29.86,East,90,3.0,3.0,100,0.00,,,0.00,TxWx,2013-03-19 06:43:00,
2013-03-19 00:45:00,69.0,69.0,29.86,ESE,112,2.0,3.0,100,0.00,,,0.00,TxWx,2013-03-19 06:45:00,
2013-03-19 00:46:00,69.0,69.0,29.86,ESE,112,5.0,5.0,100,0.00,,,0.00,TxWx,2013-03-19 06:46:00,
2013-03-19 00:47:00,68.0,68.0,29.86,SE,135,5.0,6.0,100,0.00,,,0.00,TxWx,2013-03-19 06:47:00,
2013-03-19 00:49:00,68.0,68.0,29.86,East,90,5.0,5.0,100,0.00,,,0.00,TxWx,2013-03-19 06:49:00,
2013-03-19 00:50:00,68.0,68.0,29.86,SE,135,3.0,3.0,100,0.00,,,0.00,TxWx,2013-03-19 06:50:00,
2013-03-19 00:51:00,68.0,68.0,29.86,East,90,3.0,3.0,100,0.00,,,0.00,TxWx,2013-03-19 06:51:00,
2013-03-19 00:54:00,69.0,69.0,29.86,East,90,3.0,3.0,100,0.00,,,0.00,TxWx,2013-03-19 06:54:00,
2013-03-19 00:56:00,69.0,69.0,29.86,ESE,112,5.0,5.0,100,0.00,,,0.00,TxWx,2013-03-19 06:56:00,
2013-03-19 00:57:00,69.0,69.0,29.86,ESE,112,2.0,3.0,100,0.00,,,0.00,TxWx,2013-03-19 06:57:00,
2013-03-19 01:00:00,69.0,69.0,29.86,ESE,112,4.0,5.0,100,0.00,,,0.00,TxWx,2013-03-19 07:00:00,
2013-03-19 01:01:00,69.0,69.0,29.86,ESE,112,5.0,5.0,100,0.00,,,0.00,TxWx,2013-03-19 07:01:00,
2013-03-19 01:02:00,69.0,69.0,29.86,NE,45,3.0,3.0,100,0.00,,,0.00,TxWx,2013-03-19 07:02:00,
2013-03-19 01:03:00,69.0,69.0,29.86,ENE,67,5.0,5.0,100,0.00,,,0.00,TxWx,2013-03-19 07:03:00,
2013-03-19 01:05:00,69.0,69.0,29.86,East,90,2.0,3.0,100,0.00,,,0.00,TxWx,2013-03-19 07:05:00,
2013-03-19 01:08:00,69.0,69.0,29.86,ENE,67,3.0,3.0,100,0.00,,,0.00,TxWx,2013-03-19 07:08:00,
2013-03-19 01:09:00,69.0,69.0,29.86,East,90,3.0,3.0,100,0.00,,,0.00,TxWx,2013-03-19 07:09:00,
2013-03-19 01:10:00,69.0,69.0,29.86,NE,45,3.0,3.0,100,0.00,,,0.00,TxWx,2013-03-19 07:10:00,
2013-03-19 01:13:00,69.0,69.0,29.86,East,90,3.0,3.0,100,0.00,,,0.00,TxWx,2013-03-19 07:13:00,
2013-03-19 01:14:00,69.0,69.0,29.86,ENE,67,4.0,5.0,100,0.00,,,0.00,TxWx,2013-03-19 07:14:00,
2013-03-19 01:16:00,69.0,69.0,29.86,ENE,67,5.0,5.0,100,0.00,,,0.00,TxWx,2013-03-19 07:16:00,
2013-03-19 01:18:00,69.0,69.0,29.86,East,90,6.0,6.0,100,0.00,,,0.00,TxWx,2013-03-19 07:18:00,
2013-03-19 01:21:00,69.0,69.0,29.86,NE,45,5.0,5.0,100,0.00,,,0.00,TxWx,2013-03-19 07:21:00,
2013-03-19 01:25:00,69.0,69.0,29.86,ENE,67,2.0,3.0,100,0.00,,,0.00,TxWx,2013-03-19 07:25:00,
2013-03-19 01:26:00,69.0,69.0,29.86,ENE,67,2.0,2.0,100,0.00,,,0.00,TxWx,2013-03-19 07:26:00,
2013-03-19 01:27:00,69.0,69.0,29.87,NE,45,4.0,4.0,100,0.00,,,0.00,TxWx,2013-03-19 07:27:00,
2013-03-19 01:28:00,69.0,69.0,29.86,ENE,67,2.0,3.0,100,0.00,,,0.00,TxWx,2013-03-19 07:28:00,
2013-03-19 01:32:00,69.0,69.0,29.86,ESE,112,3.0,4.0,100,0.00,,,0.00,TxWx,2013-03-19 07:32:00,
2013-03-19 01:33:00,69.0,69.0,29.86,ENE,67,5.0,6.0,100,0.00,,,0.00,TxWx,2013-03-19 07:33:00,
2013-03-19 01:37:00,69.0,69.0,29.86,ESE,112,5.0,5.0,100,0.00,,,0.00,TxWx,2013-03-19 07:37:00,
2013-03-19 01:38:00,69.0,69.0,29.86,ENE,67,4.0,5.0,100,0.00,,,0.00,TxWx,2013-03-19 07:38:00,
2013-03-19 01:39:00,69.0,69.0,29.86,East,90,5.0,5.0,100,0.00,,,0.00,TxWx,2013-03-19 07:39:00,
2013-03-19 01:40:00,69.0,69.0,29.86,ESE,112,5.0,5.0,100,0.00,,,0.00,TxWx,2013-03-19 07:40:00,
2013-03-19 01:42:00,69.0,69.0,29.86,ENE,67,5.0,5.0,100,0.00,,,0.00,TxWx,2013-03-19 07:42:00,
2013-03-19 01:44:00,69.0,69.0,29.86,ENE,67,2.0,2.0,100,0.00,,,0.00,TxWx,2013-03-19 07:44:00,
2013-03-19 01:45:00,69.0,69.0,29.86,NE,45,6.0,6.0,100,0.00,,,0.00,TxWx,2013-03-19 07:45:00,
2013-03-19 01:47:00,69.0,69.0,29.86,NNE,22,6.0,6.0,100,0.00,,,0.00,TxWx,2013-03-19 07:47:00,
2013-03-19 01:49:00,69.0,69.0,29.86,North,0,8.0,8.0,100,0.00,,,0.00,TxWx,2013-03-19 07:49:00,
2013-03-19 01:51:00,69.0,69.0,29.86,North,0,5.0,5.0,100,0.00,,,0.00,TxWx,2013-03-19 07:51:00,
2013-03-19 01:52:00,69.0,69.0,29.86,NE,45,5.0,6.0,100,0.00,,,0.00,TxWx,2013-03-19 07:52:00,
2013-03-19 01:55:00,69.0,69.0,29.86,NE,45,4.0,5.0,100,0.00,,,0.00,TxWx,2013-03-19 07:55:00,
2013-03-19 01:58:00,69.0,69.0,29.86,ENE,67,8.0,8.0,100,0.00,,,0.00,TxWx,2013-03-19 07:58:00,
2013-03-19 01:59:00,69.0,69.0,29.85,NE,45,5.0,6.0,100,0.00,,,0.00,TxWx,2013-03-19 07:59:00,
2013-03-19 02:01:00,69.0,69.0,29.86,ENE,67,6.0,7.0,100,0.00,,,0.00,TxWx,2013-03-19 08:01:00,
2013-03-19 02:02:00,69.0,69.0,29.85,NNE,22,4.0,4.0,100,0.00,,,0.00,TxWx,2013-03-19 08:02:00,
2013-03-19 02:03:00,69.0,69.0,29.86,NE,45,8.0,8.0,100,0.00,,,0.00,TxWx,2013-03-19 08:03:00,
2013-03-19 02:06:00,69.0,69.0,29.86,NNE,22,3.0,4.0,100,0.00,,,0.00,TxWx,2013-03-19 08:06:00,
2013-03-19 02:08:00,69.0,69.0,29.85,ENE,67,8.0,8.0,100,0.00,,,0.00,TxWx,2013-03-19 08:08:00,
2013-03-19 02:09:00,69.0,69.0,29.86,NNE,22,6.0,6.0,100,0.00,,,0.00,TxWx,2013-03-19 08:09:00,
2013-03-19 02:11:00,69.0,69.0,29.85,NE,45,6.0,8.0,100,0.00,,,0.00,TxWx,2013-03-19 08:11:00,
2013-03-19 02:12:00,69.0,69.0,29.85,NNE,22,5.0,5.0,100,0.00,,,0.00,TxWx,2013-03-19 08:12:00,
2013-03-19 02:15:00,69.0,69.0,29.86,NE,45,5.0,6.0,100,0.00,,,0.00,TxWx,2013-03-19 08:15:00,
2013-03-19 02:17:00,69.0,69.0,29.85,NE,45,9.0,9.0,100,0.00,,,0.00,TxWx,2013-03-19 08:17:00,
2013-03-19 02:20:00,69.0,69.0,29.85,NE,45,7.0,8.0,100,0.00,,,0.00,TxWx,2013-03-19 08:20:00,
2013-03-19 02:21:00,69.0,69.0,29.85,NE,45,5.0,5.0,100,0.00,,,0.00,TxWx,2013-03-19 08:21:00,
2013-03-19 02:23:00,69.0,69.0,29.85,ENE,67,7.0,8.0,100,0.00,,,0.00,TxWx,2013-03-19 08:23:00,
2013-03-19 02:25:00,69.0,69.0,29.85,NE,45,8.0,8.0,100,0.00,,,0.00,TxWx,2013-03-19 08:25:00,
2013-03-19 02:29:00,69.0,69.0,29.85,North,0,6.0,8.0,100,0.00,,,0.00,TxWx,2013-03-19 08:29:00,
2013-03-19 02:31:00,69.0,69.0,29.85,NE,45,6.0,7.0,100,0.00,,,0.00,TxWx,2013-03-19 08:31:00,
2013-03-19 02:34:00,69.0,69.0,29.85,North,0,7.0,8.0,100,0.00,,,0.00,TxWx,2013-03-19 08:34:00,
2013-03-19 02:36:00,69.0,69.0,29.85,ENE,67,6.0,8.0,100,0.00,,,0.00,TxWx,2013-03-19 08:36:00,
2013-03-19 02:37:00,69.0,69.0,29.85,NE,45,8.0,9.0,100,0.00,,,0.00,TxWx,2013-03-19 08:37:00,
2013-03-19 02:39:00,69.0,69.0,29.85,ENE,67,11.0,11.0,100,0.00,,,0.00,TxWx,2013-03-19 08:39:00,
2013-03-19 02:42:00,69.0,69.0,29.85,ENE,67,5.0,6.0,100,0.00,,,0.00,TxWx,2013-03-19 08:42:00,
2013-03-19 02:43:00,69.0,69.0,29.85,NNE,22,6.0,6.0,100,0.00,,,0.00,TxWx,2013-03-19 08:43:00,
2013-03-19 02:45:00,69.0,69.0,29.85,NE,45,5.0,5.0,100,0.00,,,0.00,TxWx,2013-03-19 08:45:00,
2013-03-19 02:48:00,69.0,69.0,29.85,NE,45,6.0,6.0,100,0.00,,,0.00,TxWx,2013-03-19 08:48:00,
2013-03-19 02:49:00,69.0,69.0,29.85,NE,45,8.0,9.0,100,0.00,,,0.00,TxWx,2013-03-19 08:49:00,
2013-03-19 02:50:00,69.0,69.0,29.85,NNE,22,6.0,6.0,100,0.00,,,0.00,TxWx,2013-03-19 08:50:00,
2013-03-19 02:51:00,69.0,69.0,29.85,East,90,5.0,6.0,100,0.00,,,0.00,TxWx,2013-03-19 08:51:00,
2013-03-19 02:54:00,69.0,69.0,29.84,East,90,7.0,7.0,100,0.00,,,0.00,TxWx,2013-03-19 08:54:00,
2013-03-19 02:56:00,69.0,69.0,29.84,NNE,22,6.0,8.0,100,0.00,,,0.00,TxWx,2013-03-19 08:56:00,
2013-03-19 03:01:00,68.0,68.0,29.85,NNE,22,9.0,10.0,100,0.00,,,0.00,TxWx,2013-03-19 09:01:00,
2013-03-19 03:02:00,68.0,68.0,29.84,North,0,4.0,5.0,100,0.00,,,0.00,TxWx,2013-03-19 09:02:00,
2013-03-19 03:07:00,68.0,68.0,29.85,NE,45,8.0,8.0,100,0.00,,,0.00,TxWx,2013-03-19 09:07:00,
2013-03-19 03:09:00,68.0,68.0,29.85,NE,45,10.0,10.0,100,0.00,,,0.00,TxWx,2013-03-19 09:09:00,
2013-03-19 03:13:00,68.0,68.0,29.85,NNE,22,8.0,8.0,100,0.00,,,0.00,TxWx,2013-03-19 09:13:00,
2013-03-19 03:14:00,68.0,68.0,29.85,NE,45,4.0,5.0,100,0.00,,,0.00,TxWx,2013-03-19 09:14:00,
2013-03-19 03:16:00,68.0,68.0,29.85,NNE,22,5.0,7.0,100,0.00,,,0.00,TxWx,2013-03-19 09:16:00,
2013-03-19 03:18:00,67.0,67.0,29.84,NE,45,6.0,6.0,100,0.00,,,0.00,TxWx,2013-03-19 09:18:00,
2013-03-19 03:21:00,66.0,66.0,29.84,NNE,22,10.0,11.0,100,0.00,,,0.00,TxWx,2013-03-19 09:21:00,
2013-03-19 03:22:00,66.0,66.0,29.84,NE,45,8.0,8.0,100,0.00,,,0.00,TxWx,2013-03-19 09:22:00,
2013-03-19 03:24:00,67.0,67.0,29.84,NNE,22,9.0,10.0,100,0.00,,,0.00,TxWx,2013-03-19 09:24:00,
2013-03-19 03:26:00,67.0,67.0,29.84,ENE,67,11.0,12.0,100,0.00,,,0.00,TxWx,2013-03-19 09:26:00,
2013-03-19 03:27:00,68.0,68.0,29.84,ENE,67,9.0,11.0,100,0.00,,,0.00,TxWx,2013-03-19 09:27:00,
2013-03-19 03:30:00,68.0,68.0,29.84,NNE,22,10.0,10.0,100,0.00,,,0.00,TxWx,2013-03-19 09:30:00,
2013-03-19 03:32:00,68.0,68.0,29.84,NE,45,5.0,6.0,100,0.00,,,0.00,TxWx,2013-03-19 09:32:00,
2013-03-19 03:33:00,68.0,68.0,29.84,NE,45,4.0,4.0,99,0.00,,,0.00,TxWx,2013-03-19 09:33:00,
2013-03-19 03:35:00,68.0,67.0,29.84,NE,45,10.0,10.0,98,0.00,,,0.00,TxWx,2013-03-19 09:35:00,
2013-03-19 03:38:00,68.0,67.0,29.84,NE,45,11.0,11.0,96,0.00,,,0.00,TxWx,2013-03-19 09:38:00,
2013-03-19 03:39:00,69.0,68.0,29.84,NE,45,9.0,11.0,95,0.00,,,0.00,TxWx,2013-03-19 09:39:00,
2013-03-19 03:41:00,69.0,67.0,29.84,ENE,67,10.0,10.0,94,0.00,,,0.00,TxWx,2013-03-19 09:41:00,
2013-03-19 03:42:00,69.0,67.0,29.84,NE,45,7.0,7.0,94,0.00,,,0.00,TxWx,2013-03-19 09:42:00,
2013-03-19 03:44:00,69.0,67.0,29.84,NE,45,10.0,12.0,93,0.00,,,0.00,TxWx,2013-03-19 09:44:00,
2013-03-19 03:47:00,69.0,67.0,29.84,ENE,67,11.0,11.0,92,0.00,,,0.00,TxWx,2013-03-19 09:47:00,
2013-03-19 03:49:00,69.0,66.0,29.84,NNE,22,10.0,13.0,91,0.00,,,0.00,TxWx,2013-03-19 09:49:00,
2013-03-19 03:50:00,69.0,66.0,29.84,North,0,10.0,10.0,91,0.00,,,0.00,TxWx,2013-03-19 09:50:00,
2013-03-19 03:53:00,69.0,66.0,29.84,North,0,9.0,9.0,90,0.00,,,0.00,TxWx,2013-03-19 09:53:00,
2013-03-19 03:55:00,69.0,66.0,29.84,East,90,9.0,10.0,90,0.00,,,0.00,TxWx,2013-03-19 09:55:00,
2013-03-19 03:57:00,69.0,66.0,29.84,NE,45,7.0,7.0,90,0.00,,,0.00,TxWx,2013-03-19 09:57:00,
2013-03-19 04:00:00,69.0,65.0,29.84,ENE,67,6.0,6.0,89,0.00,,,0.00,TxWx,2013-03-19 10:00:00,
2013-03-19 04:01:00,69.0,65.0,29.84,NE,45,7.0,9.0,89,0.00,,,0.00,TxWx,2013-03-19 10:01:00,
2013-03-19 04:02:00,69.0,65.0,29.84,East,90,8.0,8.0,88,0.00,,,0.00,TxWx,2013-03-19 10:02:00,
2013-03-19 04:03:00,69.0,65.0,29.84,NE,45,11.0,11.0,88,0.00,,,0.00,TxWx,2013-03-19 10:03:00,
2013-03-19 04:07:00,69.0,65.0,29.84,NNE,22,11.0,12.0,86,0.00,,,0.00,TxWx,2013-03-19 10:07:00,
2013-03-19 04:08:00,69.0,65.0,29.84,ENE,67,11.0,11.0,86,0.00,,,0.00,TxWx,2013-03-19 10:08:00,
2013-03-19 04:09:00,69.0,65.0,29.84,NNE,22,10.0,11.0,86,0.00,,,0.00,TxWx,2013-03-19 10:09:00,
2013-03-19 04:12:00,69.0,64.0,29.84,NE,45,7.0,7.0,86,0.00,,,0.00,TxWx,2013-03-19 10:12:00,
2013-03-19 04:14:00,68.0,63.0,29.84,NNE,22,10.0,10.0,85,0.00,,,0.00,TxWx,2013-03-19 10:14:00,
2013-03-19 04:15:00,68.0,63.0,29.84,NE,45,9.0,9.0,85,0.00,,,0.00,TxWx,2013-03-19 10:15:00,
2013-03-19 04:16:00,69.0,64.0,29.84,NE,45,8.0,9.0,85,0.00,,,0.00,TxWx,2013-03-19 10:16:00,
2013-03-19 04:18:00,69.0,64.0,29.84,ENE,67,8.0,8.0,85,0.00,,,0.00,TxWx,2013-03-19 10:18:00,
2013-03-19 04:19:00,69.0,64.0,29.84,NE,45,12.0,12.0,85,0.00,,,0.00,TxWx,2013-03-19 10:19:00,
2013-03-19 04:22:00,68.0,63.0,29.84,NE,45,10.0,10.0,85,0.00,,,0.00,TxWx,2013-03-19 10:22:00,
2013-03-19 04:24:00,68.0,63.0,29.84,NE,45,12.0,14.0,84,0.00,,,0.00,TxWx,2013-03-19 10:24:00,
2013-03-19 04:25:00,68.0,63.0,29.84,East,90,11.0,11.0,84,0.00,,,0.00,TxWx,2013-03-19 10:25:00,
2013-03-19 04:28:00,69.0,64.0,29.84,NE,45,9.0,10.0,84,0.00,,,0.00,TxWx,2013-03-19 10:28:00,
2013-03-19 04:29:00,68.0,63.0,29.84,ENE,67,11.0,11.0,84,0.00,,,0.00,TxWx,2013-03-19 10:29:00,
2013-03-19 04:30:00,68.0,63.0,29.84,ENE,67,11.0,11.0,83,0.00,,,0.00,TxWx,2013-03-19 10:30:00,
2013-03-19 04:33:00,68.0,63.0,29.84,NNE,22,8.0,8.0,83,0.00,,,0.00,TxWx,2013-03-19 10:33:00,
2013-03-19 04:36:00,68.0,63.0,29.84,ENE,67,9.0,9.0,84,0.00,,,0.00,TxWx,2013-03-19 10:36:00,
2013-03-19 04:37:00,68.0,63.0,29.84,ENE,67,11.0,11.0,83,0.00,,,0.00,TxWx,2013-03-19 10:37:00,
2013-03-19 04:39:00,68.0,63.0,29.84,ENE,67,6.0,7.0,84,0.00,,,0.00,TxWx,2013-03-19 10:39:00,
2013-03-19 04:41:00,68.0,63.0,29.84,NE,45,8.0,10.0,84,0.00,,,0.00,TxWx,2013-03-19 10:41:00,
2013-03-19 04:42:00,68.0,63.0,29.84,NE,45,11.0,11.0,83,0.00,,,0.00,TxWx,2013-03-19 10:42:00,
2013-03-19 04:44:00,68.0,63.0,29.84,ENE,67,10.0,11.0,83,0.00,,,0.00,TxWx,2013-03-19 10:44:00,
2013-03-19 04:46:00,68.0,63.0,29.84,ENE,67,11.0,11.0,84,0.00,,,0.00,TxWx,2013-03-19 10:46:00,
2013-03-19 04:47:00,68.0,63.0,29.84,NE,45,8.0,9.0,84,0.00,,,0.00,TxWx,2013-03-19 10:47:00,
2013-03-19 04:50:00,68.0,63.0,29.84,NE,45,11.0,11.0,84,0.00,,,0.00,TxWx,2013-03-19 10:50:00,
2013-03-19 04:51:00,68.0,63.0,29.84,NE,45,8.0,8.0,84,0.00,,,0.00,TxWx,2013-03-19 10:51:00,
2013-03-19 04:53:00,68.0,63.0,29.84,NE,45,9.0,10.0,84,0.00,,,0.00,TxWx,2013-03-19 10:53:00,
2013-03-19 04:57:00,68.0,63.0,29.85,NNE,22,7.0,10.0,84,0.00,,,0.00,TxWx,2013-03-19 10:57:00,
2013-03-19 04:59:00,68.0,63.0,29.85,NE,45,11.0,11.0,84,0.00,,,0.00,TxWx,2013-03-19 10:59:00,
2013-03-19 05:02:00,68.0,63.0,29.85,NE,45,8.0,8.0,84,0.00,,,0.00,TxWx,2013-03-19 11:02:00,
2013-03-19 05:05:00,68.0,63.0,29.85,ENE,67,8.0,8.0,84,0.00,,,0.00,TxWx,2013-03-19 11:05:00,
2013-03-19 05:06:00,68.0,63.0,29.85,NE,45,8.0,8.0,84,0.00,,,0.00,TxWx,2013-03-19 11:06:00,
2013-03-19 05:08:00,68.0,63.0,29.85,NE,45,12.0,12.0,84,0.00,,,0.00,TxWx,2013-03-19 11:08:00,
2013-03-19 05:10:00,68.0,63.0,29.85,ENE,67,9.0,9.0,84,0.00,,,0.00,TxWx,2013-03-19 11:10:00,
2013-03-19 05:13:00,68.0,63.0,29.84,NNE,22,8.0,9.0,84,0.00,,,0.00,TxWx,2013-03-19 11:13:00,
2013-03-19 05:15:00,68.0,63.0,29.85,ENE,67,10.0,11.0,84,0.00,,,0.00,TxWx,2013-03-19 11:15:00,
2013-03-19 05:18:00,68.0,63.0,29.85,NE,45,8.0,8.0,84,0.00,,,0.00,TxWx,2013-03-19 11:18:00,
2013-03-19 05:21:00,68.0,63.0,29.85,NE,45,11.0,11.0,85,0.00,,,0.00,TxWx,2013-03-19 11:21:00,
2013-03-19 05:22:00,68.0,63.0,29.85,NE,45,7.0,7.0,85,0.00,,,0.00,TxWx,2013-03-19 11:22:00,
2013-03-19 05:23:00,68.0,63.0,29.85,NE,45,11.0,11.0,85,0.00,,,0.00,TxWx,2013-03-19 11:23:00,
2013-03-19 05:26:00,68.0,63.0,29.85,NNE,22,5.0,5.0,85,0.00,,,0.00,TxWx,2013-03-19 11:26:00,
2013-03-19 05:27:00,68.0,63.0,29.85,NNE,22,6.0,6.0,85,0.00,,,0.00,TxWx,2013-03-19 11:27:00,
2013-03-19 05:28:00,68.0,63.0,29.84,ENE,67,9.0,10.0,85,0.00,,,0.00,TxWx,2013-03-19 11:28:00,
2013-03-19 05:31:00,68.0,63.0,29.85,NE,45,8.0,8.0,86,0.00,,,0.00,TxWx,2013-03-19 11:31:00,
2013-03-19 05:33:00,68.0,63.0,29.85,ENE,67,5.0,6.0,86,0.00,,,0.00,TxWx,2013-03-19 11:33:00,
2013-03-19 05:34:00,68.0,64.0,29.85,NE,45,10.0,11.0,86,0.00,,,0.00,TxWx,2013-03-19 11:34:00,
2013-03-19 05:35:00,68.0,64.0,29.85,NE,45,8.0,8.0,86,0.00,,,0.00,TxWx,2013-03-19 11:35:00,
2013-03-19 05:38:00,68.0,64.0,29.85,NE,45,5.0,7.0,86,0.00,,,0.00,TxWx,2013-03-19 11:38:00,
2013-03-19 05:39:00,68.0,64.0,29.85,ENE,67,11.0,13.0,86,0.00,,,0.00,TxWx,2013-03-19 11:39:00,
2013-03-19 05:42:00,68.0,64.0,29.85,East,90,8.0,8.0,86,0.00,,,0.00,TxWx,2013-03-19 11:42:00,
2013-03-19 05:44:00,68.0,64.0,29.85,NE,45,7.0,8.0,86,0.00,,,0.00,TxWx,2013-03-19 11:44:00,
2013-03-19 05:45:00,68.0,64.0,29.85,ENE,67,6.0,6.0,86,0.00,,,0.00,TxWx,2013-03-19 11:45:00,
2013-03-19 05:48:00,68.0,63.0,29.85,ENE,67,10.0,10.0,86,0.00,,,0.00,TxWx,2013-03-19 11:48:00,
2013-03-19 05:50:00,68.0,64.0,29.86,ESE,112,6.0,6.0,86,0.00,,,0.00,TxWx,2013-03-19 11:50:00,
2013-03-19 05:54:00,68.0,64.0,29.86,NE,45,5.0,7.0,86,0.00,,,0.00,TxWx,2013-03-19 11:54:00,
2013-03-19 05:56:00,68.0,64.0,29.86,NNE,22,8.0,10.0,87,0.00,,,0.00,TxWx,2013-03-19 11:56:00,
2013-03-19 05:59:00,68.0,64.0,29.87,ENE,67,6.0,6.0,87,0.00,,,0.00,TxWx,2013-03-19 11:59:00,
2013-03-19 06:01:00,68.0,64.0,29.87,East,90,8.0,8.0,87,0.00,,,0.00,TxWx,2013-03-19 12:01:00,
2013-03-19 06:05:00,68.0,64.0,29.86,NE,45,6.0,8.0,87,0.00,,,0.00,TxWx,2013-03-19 12:05:00,
2013-03-19 06:07:00,68.0,64.0,29.87,East,90,5.0,7.0,87,0.00,,,0.00,TxWx,2013-03-19 12:07:00,
2013-03-19 06:08:00,68.0,64.0,29.87,ENE,67,5.0,6.0,87,0.00,,,0.00,TxWx,2013-03-19 12:08:00,
2013-03-19 06:10:00,68.0,64.0,29.87,ENE,67,8.0,8.0,87,0.00,,,0.00,TxWx,2013-03-19 12:10:00,
2013-03-19 06:13:00,68.0,64.0,29.87,East,90,8.0,8.0,87,0.00,,,0.00,TxWx,2013-03-19 12:13:00,
2013-03-19 06:14:00,68.0,64.0,29.87,ENE,67,5.0,5.0,87,0.00,,,0.00,TxWx,2013-03-19 12:14:00,
2013-03-19 06:19:00,68.0,64.0,29.87,ENE,67,10.0,10.0,87,0.00,,,0.00,TxWx,2013-03-19 12:19:00,
2013-03-19 06:20:00,68.0,64.0,29.87,ESE,112,6.0,7.0,87,0.00,,,0.00,TxWx,2013-03-19 12:20:00,
2013-03-19 06:21:00,68.0,64.0,29.87,ENE,67,7.0,7.0,88,0.00,,,0.00,TxWx,2013-03-19 12:21:00,
2013-03-19 06:25:00,68.0,64.0,29.87,ENE,67,8.0,8.0,88,0.00,,,0.00,TxWx,2013-03-19 12:25:00,
2013-03-19 06:26:00,68.0,64.0,29.88,NE,45,10.0,10.0,88,0.00,,,0.00,TxWx,2013-03-19 12:26:00,
2013-03-19 06:27:00,68.0,64.0,29.88,NE,45,6.0,6.0,88,0.00,,,0.00,TxWx,2013-03-19 12:27:00,
2013-03-19 06:30:00,68.0,64.0,29.88,ENE,67,6.0,6.0,88,0.00,,,0.00,TxWx,2013-03-19 12:30:00,
2013-03-19 06:32:00,68.0,64.0,29.88,NE,45,3.0,5.0,89,0.00,,,0.00,TxWx,2013-03-19 12:32:00,
2013-03-19 06:33:00,68.0,64.0,29.88,East,90,3.0,3.0,89,0.00,,,0.00,TxWx,2013-03-19 12:33:00,
2013-03-19 06:35:00,68.0,64.0,29.87,East,90,6.0,6.0,89,0.00,,,0.00,TxWx,2013-03-19 12:35:00,
2013-03-19 06:38:00,68.0,65.0,29.87,NE,45,6.0,7.0,89,0.00,,,0.00,TxWx,2013-03-19 12:38:00,
2013-03-19 06:39:00,68.0,65.0,29.88,NE,45,3.0,4.0,89,0.00,,,0.00,TxWx,2013-03-19 12:39:00,
2013-03-19 06:41:00,68.0,65.0,29.88,East,90,8.0,10.0,89,0.00,,,0.00,TxWx,2013-03-19 12:41:00,
2013-03-19 06:43:00,68.0,65.0,29.88,East,90,7.0,8.0,90,0.00,,,0.00,TxWx,2013-03-19 12:43:00,
2013-03-19 06:46:00,68.0,65.0,29.88,ENE,67,5.0,6.0,90,0.00,,,0.00,TxWx,2013-03-19 12:46:00,
2013-03-19 06:49:00,68.0,65.0,29.88,ESE,112,7.0,8.0,90,0.00,,,0.00,TxWx,2013-03-19 12:49:00,
2013-03-19 06:50:00,68.0,65.0,29.88,ENE,67,10.0,10.0,90,0.00,,,0.00,TxWx,2013-03-19 12:50:00,
2013-03-19 06:54:00,68.0,65.0,29.88,ENE,67,10.0,10.0,91,0.00,,,0.00,TxWx,2013-03-19 12:54:00,
2013-03-19 06:55:00,68.0,65.0,29.88,ENE,67,7.0,8.0,91,0.00,,,0.00,TxWx,2013-03-19 12:55:00,
2013-03-19 06:56:00,68.0,65.0,29.88,ENE,67,8.0,8.0,91,0.00,,,0.00,TxWx,2013-03-19 12:56:00,
2013-03-19 06:59:00,69.0,67.0,29.88,ESE,112,12.0,12.0,92,0.00,,,0.00,TxWx,2013-03-19 12:59:00,
2013-03-19 07:01:00,69.0,67.0,29.88,ESE,112,13.0,13.0,93,0.00,,,0.00,TxWx,2013-03-19 13:01:00,
2013-03-19 07:05:00,69.0,67.0,29.89,East,90,12.0,14.0,93,0.00,,,0.00,TxWx,2013-03-19 13:05:00,
2013-03-19 07:06:00,69.0,67.0,29.89,ENE,67,10.0,10.0,93,0.00,,,0.00,TxWx,2013-03-19 13:06:00,
2013-03-19 07:10:00,69.0,67.0,29.89,ENE,67,11.0,11.0,94,0.00,,,0.00,TxWx,2013-03-19 13:10:00,
2013-03-19 07:11:00,70.0,67.0,29.89,ESE,112,11.0,11.0,94,0.00,,,0.00,TxWx,2013-03-19 13:11:00,
2013-03-19 07:13:00,69.0,67.0,29.89,ESE,112,10.0,13.0,94,0.00,,,0.00,TxWx,2013-03-19 13:13:00,
2013-03-19 07:16:00,69.0,67.0,29.90,East,90,16.0,16.0,94,0.00,,,0.00,TxWx,2013-03-19 13:16:00,
2013-03-19 07:17:00,69.0,67.0,29.90,East,90,13.0,13.0,94,0.00,,,0.00,TxWx,2013-03-19 13:17:00,
2013-03-19 07:22:00,69.0,67.0,29.90,ESE,112,14.0,16.0,94,0.00,,,0.00,TxWx,2013-03-19 13:22:00,
2013-03-19 07:24:00,69.0,67.0,29.90,East,90,8.0,8.0,95,0.00,,,0.00,TxWx,2013-03-19 13:24:00,
2013-03-19 07:29:00,69.0,67.0,29.90,ESE,112,18.0,18.0,95,0.00,,,0.00,TxWx,2013-03-19 13:29:00,
2013-03-19 07:30:00,69.0,67.0,29.90,SE,135,9.0,10.0,95,0.00,,,0.00,TxWx,2013-03-19 13:30:00,
2013-03-19 07:33:00,69.0,68.0,29.90,ESE,112,11.0,13.0,95,0.00,,,0.00,TxWx,2013-03-19 13:33:00,
2013-03-19 07:34:00,69.0,68.0,29.90,ESE,112,12.0,14.0,95,0.00,,,0.00,TxWx,2013-03-19 13:34:00,
2013-03-19 07:35:00,69.0,68.0,29.90,SE,135,11.0,14.0,95,0.00,,,0.00,TxWx,2013-03-19 13:35:00,
2013-03-19 07:36:00,69.0,68.0,29.90,ESE,112,9.0,13.0,95,0.00,,,0.00,TxWx,2013-03-19 13:36:00,
2013-03-19 07:39:00,69.0,68.0,29.90,ESE,112,13.0,15.0,95,0.00,,,0.00,TxWx,2013-03-19 13:39:00,
2013-03-19 07:41:00,69.0,68.0,29.90,East,90,16.0,16.0,96,0.00,,,0.00,TxWx,2013-03-19 13:41:00,
2013-03-19 07:44:00,69.0,68.0,29.91,East,90,11.0,11.0,96,0.00,,,0.00,TxWx,2013-03-19 13:44:00,
2013-03-19 07:45:00,69.0,68.0,29.90,ESE,112,10.0,10.0,96,0.00,,,0.00,TxWx,2013-03-19 13:45:00,
2013-03-19 07:46:00,69.0,68.0,29.91,ESE,112,18.0,18.0,96,0.00,,,0.00,TxWx,2013-03-19 13:46:00,
2013-03-19 07:50:00,69.0,68.0,29.91,East,90,16.0,16.0,96,0.00,,,0.00,TxWx,2013-03-19 13:50:00,
2013-03-19 07:52:00,69.0,68.0,29.91,ENE,67,13.0,13.0,96,0.00,,,0.00,TxWx,2013-03-19 13:52:00,
2013-03-19 07:54:00,69.0,68.0,29.91,ESE,112,19.0,19.0,96,0.00,,,0.00,TxWx,2013-03-19 13:54:00,
2013-03-19 07:56:00,69.0,68.0,29.91,ESE,112,13.0,13.0,96,0.00,,,0.00,TxWx,2013-03-19 13:56:00,
2013-03-19 07:57:00,69.0,68.0,29.91,East,90,11.0,14.0,96,0.00,,,0.00,TxWx,2013-03-19 13:57:00,
2013-03-19 07:59:00,69.0,68.0,29.91,East,90,13.0,13.0,97,0.00,,,0.00,TxWx,2013-03-19 13:59:00,
2013-03-19 08:01:00,69.0,68.0,29.91,East,90,16.0,16.0,97,0.00,,,0.00,TxWx,2013-03-19 14:01:00,
2013-03-19 08:04:00,69.0,68.0,29.92,ESE,112,10.0,10.0,97,0.00,,,0.00,TxWx,2013-03-19 14:04:00,
2013-03-19 08:06:00,69.0,68.0,29.92,SE,135,11.0,14.0,97,0.00,,,0.00,TxWx,2013-03-19 14:06:00,
2013-03-19 08:07:00,69.0,68.0,29.92,SE,135,19.0,19.0,97,0.00,,,0.00,TxWx,2013-03-19 14:07:00,
2013-03-19 08:10:00,69.0,68.0,29.92,East,90,13.0,13.0,97,0.00,,,0.00,TxWx,2013-03-19 14:10:00,
2013-03-19 08:12:00,69.0,68.0,29.92,ESE,112,10.0,11.0,97,0.00,,,0.00,TxWx,2013-03-19 14:12:00,
2013-03-19 08:13:00,69.0,68.0,29.92,ESE,112,13.0,17.0,97,0.00,,,0.00,TxWx,2013-03-19 14:13:00,
2013-03-19 08:15:00,69.0,68.0,29.92,East,90,14.0,16.0,97,0.00,,,0.00,TxWx,2013-03-19 14:15:00,
2013-03-19 08:16:00,68.0,67.0,29.92,ESE,112,14.0,16.0,97,0.00,,,0.00,TxWx,2013-03-19 14:16:00,
2013-03-19 08:18:00,68.0,67.0,29.92,East,90,15.0,16.0,98,0.00,,,0.00,TxWx,2013-03-19 14:18:00,
2013-03-19 08:20:00,68.0,67.0,29.92,ESE,112,16.0,16.0,98,0.00,,,0.00,TxWx,2013-03-19 14:20:00,
2013-03-19 08:21:00,68.0,67.0,29.93,ESE,112,15.0,15.0,98,0.00,,,0.00,TxWx,2013-03-19 14:21:00,
2013-03-19 08:22:00,68.0,67.0,29.93,ESE,112,14.0,14.0,98,0.00,,,0.00,TxWx,2013-03-19 14:22:00,
2013-03-19 08:27:00,68.0,67.0,29.93,ESE,112,12.0,15.0,98,0.00,,,0.00,TxWx,2013-03-19 14:27:00,
2013-03-19 08:28:00,68.0,67.0,29.93,ESE,112,14.0,16.0,98,0.00,,,0.00,TxWx,2013-03-19 14:28:00,
2013-03-19 08:32:00,68.0,68.0,29.93,ESE,112,10.0,10.0,99,0.00,,,0.00,TxWx,2013-03-19 14:32:00,
2013-03-19 08:34:00,68.0,68.0,29.93,SE,135,13.0,14.0,99,0.00,,,0.00,TxWx,2013-03-19 14:34:00,
2013-03-19 08:35:00,68.0,68.0,29.94,SE,135,14.0,15.0,99,0.00,,,0.00,TxWx,2013-03-19 14:35:00,
2013-03-19 08:41:00,68.0,68.0,29.94,SE,135,11.0,11.0,99,0.00,,,0.00,TxWx,2013-03-19 14:41:00,
2013-03-19 08:42:00,68.0,68.0,29.94,East,90,11.0,11.0,99,0.00,,,0.00,TxWx,2013-03-19 14:42:00,
2013-03-19 08:43:00,68.0,68.0,29.94,ESE,112,7.0,10.0,99,0.00,,,0.00,TxWx,2013-03-19 14:43:00,
2013-03-19 08:46:00,68.0,68.0,29.94,SE,135,13.0,13.0,99,0.00,,,0.00,TxWx,2013-03-19 14:46:00,
2013-03-19 08:47:00,68.0,68.0,29.94,SE,135,11.0,13.0,99,0.00,,,0.00,TxWx,2013-03-19 14:47:00,
2013-03-19 08:48:00,68.0,68.0,29.94,ESE,112,13.0,13.0,99,0.00,,,0.00,TxWx,2013-03-19 14:48:00,
2013-03-19 08:51:00,67.0,67.0,29.94,SE,135,11.0,11.0,99,0.00,,,0.00,TxWx,2013-03-19 14:51:00,
2013-03-19 08:53:00,67.0,67.0,29.94,East,90,14.0,14.0,100,0.00,,,0.00,TxWx,2013-03-19 14:53:00,
2013-03-19 08:56:00,67.0,67.0,29.95,ESE,112,13.0,13.0,100,0.00,,,0.00,TxWx,2013-03-19 14:56:00,
2013-03-19 08:58:00,67.0,67.0,29.94,ESE,112,13.0,13.0,100,0.00,,,0.00,TxWx,2013-03-19 14:58:00,
2013-03-19 08:59:00,67.0,67.0,29.94,ESE,112,9.0,13.0,100,0.00,,,0.00,TxWx,2013-03-19 14:59:00,
2013-03-19 09:02:00,67.0,67.0,29.94,ESE,112,10.0,10.0,100,0.00,,,0.00,TxWx,2013-03-19 15:02:00,
2013-03-19 09:04:00,67.0,67.0,29.95,ESE,112,14.0,14.0,100,0.00,,,0.00,TxWx,2013-03-19 15:04:00,
2013-03-19 09:05:00,67.0,67.0,29.95,ESE,112,11.0,11.0,100,0.00,,,0.00,TxWx,2013-03-19 15:05:00,
2013-03-19 09:09:00,68.0,68.0,29.95,ESE,112,13.0,13.0,100,0.00,,,0.00,TxWx,2013-03-19 15:09:00,
2013-03-19 09:10:00,68.0,68.0,29.95,ESE,112,10.0,11.0,100,0.00,,,0.00,TxWx,2013-03-19 15:10:00,
2013-03-19 09:11:00,68.0,68.0,29.95,ESE,112,11.0,11.0,100,0.00,,,0.00,TxWx,2013-03-19 15:11:00,
2013-03-19 09:12:00,68.0,68.0,29.95,ESE,112,10.0,10.0,100,0.00,,,0.00,TxWx,2013-03-19 15:12:00,
2013-03-19 09:16:00,67.0,67.0,29.94,ESE,112,12.0,13.0,100,0.00,,,0.00,TxWx,2013-03-19 15:16:00,
2013-03-19 09:17:00,67.0,67.0,29.95,ESE,112,10.0,10.0,100,0.00,,,0.00,TxWx,2013-03-19 15:17:00,
2013-03-19 09:21:00,68.0,68.0,29.95,SE,135,10.0,11.0,100,0.00,,,0.00,TxWx,2013-03-19 15:21:00,
2013-03-19 09:22:00,68.0,68.0,29.95,East,90,14.0,16.0,100,0.00,,,0.00,TxWx,2013-03-19 15:22:00,
2013-03-19 09:26:00,68.0,68.0,29.95,SSE,157,5.0,5.0,100,0.00,,,0.00,TxWx,2013-03-19 15:26:00,
2013-03-19 09:27:00,68.0,68.0,29.95,ESE,112,10.0,10.0,100,0.00,,,0.00,TxWx,2013-03-19 15:27:00,
2013-03-19 09:28:00,68.0,68.0,29.95,SE,135,10.0,10.0,100,0.00,,,0.00,TxWx,2013-03-19 15:28:00,
2013-03-19 09:30:00,68.0,68.0,29.95,ESE,112,8.0,8.0,100,0.00,,,0.00,TxWx,2013-03-19 15:30:00,
2013-03-19 09:33:00,67.0,67.0,29.95,SE,135,6.0,8.0,100,0.00,,,0.00,TxWx,2013-03-19 15:33:00,
2013-03-19 09:34:00,67.0,67.0,29.95,SE,135,6.0,7.0,100,0.00,,,0.00,TxWx,2013-03-19 15:34:00,
2013-03-19 09:37:00,68.0,68.0,29.95,SE,135,7.0,8.0,100,0.00,,,0.00,TxWx,2013-03-19 15:37:00,
2013-03-19 09:38:00,68.0,68.0,29.95,ESE,112,8.0,8.0,100,0.00,,,0.00,TxWx,2013-03-19 15:38:00,
2013-03-19 09:41:00,68.0,68.0,29.95,East,90,7.0,7.0,100,0.00,,,0.00,TxWx,2013-03-19 15:41:00,
2013-03-19 09:42:00,68.0,68.0,29.95,SE,135,10.0,10.0,100,0.00,,,0.00,TxWx,2013-03-19 15:42:00,
2013-03-19 09:44:00,67.0,67.0,29.95,SE,135,6.0,6.0,100,0.00,,,0.00,TxWx,2013-03-19 15:44:00,
2013-03-19 09:46:00,67.0,67.0,29.95,ESE,112,6.0,6.0,100,0.00,,,0.00,TxWx,2013-03-19 15:46:00,
2013-03-19 09:49:00,67.0,67.0,29.95,ESE,112,6.0,7.0,100,0.00,,,0.00,TxWx,2013-03-19 15:49:00,
2013-03-19 09:51:00,68.0,68.0,29.95,SE,135,7.0,8.0,100,0.00,,,0.00,TxWx,2013-03-19 15:51:00,
2013-03-19 09:52:00,68.0,68.0,29.95,SE,135,5.0,5.0,100,0.00,,,0.00,TxWx,2013-03-19 15:52:00,
2013-03-19 09:53:00,68.0,68.0,29.95,SE,135,8.0,8.0,100,0.00,,,0.00,TxWx,2013-03-19 15:53:00,
2013-03-19 09:55:00,68.0,68.0,29.95,SE,135,6.0,6.0,100,0.00,,,0.00,TxWx,2013-03-19 15:55:00,
2013-03-19 09:59:00,67.0,67.0,29.95,SE,135,8.0,8.0,100,0.00,,,0.00,TxWx,2013-03-19 15:59:00,
2013-03-19 10:00:00,68.0,68.0,29.95,SE,135,5.0,5.0,100,0.00,,,0.00,TxWx,2013-03-19 16:00:00,
2013-03-19 10:03:00,68.0,68.0,29.94,SE,135,5.0,6.0,100,0.00,,,0.00,TxWx,2013-03-19 16:03:00,
2013-03-19 10:05:00,68.0,68.0,29.94,SE,135,8.0,8.0,100,0.00,,,0.00,TxWx,2013-03-19 16:05:00,
2013-03-19 10:07:00,68.0,68.0,29.94,SE,135,5.0,6.0,100,0.00,,,0.00,TxWx,2013-03-19 16:07:00,
2013-03-19 10:09:00,68.0,68.0,29.94,ESE,112,5.0,5.0,100,0.00,,,0.00,TxWx,2013-03-19 16:09:00,
2013-03-19 10:10:00,68.0,68.0,29.94,SE,135,8.0,9.0,100,0.00,,,0.00,TxWx,2013-03-19 16:10:00,
2013-03-19 10:13:00,68.0,68.0,29.94,ESE,112,8.0,8.0,100,0.00,,,0.00,TxWx,2013-03-19 16:13:00,
2013-03-19 10:15:00,68.0,68.0,29.94,SE,135,6.0,6.0,100,0.00,,,0.00,TxWx,2013-03-19 16:15:00,
2013-03-19 10:18:00,68.0,68.0,29.94,ESE,112,3.0,4.0,100,0.00,,,0.00,TxWx,2013-03-19 16:18:00,
2013-03-19 10:20:00,68.0,68.0,29.94,SE,135,5.0,6.0,100,0.00,,,0.00,TxWx,2013-03-19 16:20:00,
2013-03-19 10:21:00,68.0,68.0,29.94,ESE,112,3.0,4.0,100,0.00,,,0.00,TxWx,2013-03-19 16:21:00,
2013-03-19 10:25:00,68.0,68.0,29.94,ESE,112,6.0,6.0,100,0.00,,,0.00,TxWx,2013-03-19 16:25:00,
2013-03-19 10:26:00,68.0,68.0,29.93,East,90,6.0,6.0,100,0.00,,,0.00,TxWx,2013-03-19 16:26:00,
2013-03-19 10:28:00,68.0,68.0,29.94,ESE,112,8.0,8.0,100,0.00,,,0.00,TxWx,2013-03-19 16:28:00,
2013-03-19 10:30:00,68.0,68.0,29.94,SE,135,6.0,7.0,100,0.00,,,0.00,TxWx,2013-03-19 16:30:00,
2013-03-19 10:32:00,68.0,68.0,29.94,SSE,157,6.0,6.0,100,0.00,,,0.00,TxWx,2013-03-19 16:32:00,
2013-03-19 10:33:00,69.0,69.0,29.94,SE,135,4.0,5.0,100,0.00,,,0.00,TxWx,2013-03-19 16:33:00,
2013-03-19 10:36:00,68.0,68.0,29.94,East,90,8.0,8.0,100,0.00,,,0.00,TxWx,2013-03-19 16:36:00,
2013-03-19 10:37:00,68.0,68.0,29.94,ESE,112,8.0,8.0,100,0.00,,,0.00,TxWx,2013-03-19 16:37:00,
2013-03-19 10:38:00,69.0,69.0,29.94,East,90,5.0,5.0,100,0.00,,,0.00,TxWx,2013-03-19 16:38:00,
2013-03-19 10:42:00,68.0,68.0,29.94,ESE,112,6.0,6.0,100,0.00,,,0.00,TxWx,2013-03-19 16:42:00,
2013-03-19 10:43:00,69.0,69.0,29.94,East,90,5.0,5.0,100,0.00,,,0.00,TxWx,2013-03-19 16:43:00,
2013-03-19 10:44:00,69.0,69.0,29.94,ESE,112,4.0,5.0,100,0.00,,,0.00,TxWx,2013-03-19 16:44:00,
2013-03-19 10:47:00,69.0,69.0,29.94,ESE,112,5.0,6.0,100,0.00,,,0.00,TxWx,2013-03-19 16:47:00,
2013-03-19 10:48:00,69.0,69.0,29.94,SE,135,5.0,5.0,100,0.00,,,0.00,TxWx,2013-03-19 16:48:00,
2013-03-19 10:49:00,69.0,69.0,29.94,ESE,112,4.0,4.0,100,0.00,,,0.00,TxWx,2013-03-19 16:49:00,
2013-03-19 10:52:00,69.0,69.0,29.94,ESE,112,5.0,5.0,100,0.00,,,0.00,TxWx,2013-03-19 16:52:00,
2013-03-19 10:53:00,69.0,69.0,29.94,SE,135,5.0,5.0,100,0.00,,,0.00,TxWx,2013-03-19 16:53:00,
2013-03-19 10:55:00,69.0,69.0,29.94,ESE,112,4.0,5.0,100,0.00,,,0.00,TxWx,2013-03-19 16:55:00,
2013-03-19 10:56:00,69.0,69.0,29.94,ESE,112,4.0,5.0,100,0.00,,,0.00,TxWx,2013-03-19 16:56:00,
2013-03-19 10:58:00,69.0,69.0,29.94,ESE,112,5.0,5.0,100,0.00,,,0.00,TxWx,2013-03-19 16:58:00,
2013-03-19 11:01:00,69.0,69.0,29.94,East,90,4.0,4.0,100,0.00,,,0.00,TxWx,2013-03-19 17:01:00,
2013-03-19 11:03:00,70.0,70.0,29.94,ENE,67,2.0,2.0,100,0.00,,,0.00,TxWx,2013-03-19 17:03:00,
2013-03-19 11:06:00,69.0,69.0,29.94,ENE,67,3.0,4.0,100,0.00,,,0.00,TxWx,2013-03-19 17:06:00,
2013-03-19 11:07:00,70.0,70.0,29.94,East,90,4.0,4.0,100,0.00,,,0.00,TxWx,2013-03-19 17:07:00,
2013-03-19 11:08:00,70.0,70.0,29.94,East,90,2.0,3.0,100,0.00,,,0.00,TxWx,2013-03-19 17:08:00,
2013-03-19 11:12:00,70.0,70.0,29.94,East,90,5.0,5.0,100,0.00,,,0.00,TxWx,2013-03-19 17:12:00,
2013-03-19 11:13:00,70.0,70.0,29.94,East,90,4.0,4.0,100,0.00,,,0.00,TxWx,2013-03-19 17:13:00,
2013-03-19 11:14:00,69.0,69.0,29.94,SE,135,4.0,4.0,100,0.00,,,0.00,TxWx,2013-03-19 17:14:00,
2013-03-19 11:19:00,70.0,70.0,29.94,East,90,3.0,3.0,100,0.00,,,0.00,TxWx,2013-03-19 17:19:00,
2013-03-19 11:20:00,70.0,70.0,29.94,East,90,3.0,4.0,100,0.00,,,0.00,TxWx,2013-03-19 17:20:00,
2013-03-19 11:25:00,70.0,70.0,29.93,East,90,5.0,5.0,99,0.00,,,0.00,TxWx,2013-03-19 17:25:00,
2013-03-19 11:26:00,70.0,70.0,29.93,ENE,67,5.0,5.0,99,0.00,,,0.00,TxWx,2013-03-19 17:26:00,
2013-03-19 11:30:00,70.0,70.0,29.93,SE,135,4.0,5.0,99,0.00,,,0.00,TxWx,2013-03-19 17:30:00,
2013-03-19 11:31:00,70.0,70.0,29.93,ESE,112,4.0,5.0,99,0.00,,,0.00,TxWx,2013-03-19 17:31:00,
2013-03-19 11:32:00,70.0,70.0,29.93,SE,135,5.0,5.0,99,0.00,,,0.00,TxWx,2013-03-19 17:32:00,
2013-03-19 11:34:00,70.0,70.0,29.93,ESE,112,4.0,5.0,99,0.00,,,0.00,TxWx,2013-03-19 17:34:00,
2013-03-19 11:35:00,70.0,70.0,29.93,ESE,112,4.0,4.0,99,0.00,,,0.00,TxWx,2013-03-19 17:35:00,
2013-03-19 11:37:00,70.0,70.0,29.93,ESE,112,5.0,5.0,99,0.00,,,0.00,TxWx,2013-03-19 17:37:00,
2013-03-19 11:39:00,70.0,70.0,29.92,SE,135,4.0,4.0,99,0.00,,,0.00,TxWx,2013-03-19 17:39:00,
2013-03-19 11:40:00,70.0,70.0,29.93,ESE,112,5.0,5.0,99,0.00,,,0.00,TxWx,2013-03-19 17:40:00,
2013-03-19 11:42:00,70.0,70.0,29.92,ESE,112,5.0,5.0,99,0.00,,,0.00,TxWx,2013-03-19 17:42:00,
2013-03-19 11:45:00,71.0,71.0,29.92,East,90,3.0,4.0,99,0.00,,,0.00,TxWx,2013-03-19 17:45:00,
2013-03-19 11:48:00,71.0,70.0,29.92,ESE,112,5.0,5.0,98,0.00,,,0.00,TxWx,2013-03-19 17:48:00,
2013-03-19 11:49:00,71.0,70.0,29.92,SE,135,5.0,5.0,98,0.00,,,0.00,TxWx,2013-03-19 17:49:00,
2013-03-19 11:50:00,71.0,70.0,29.92,East,90,4.0,4.0,98,0.00,,,0.00,TxWx,2013-03-19 17:50:00,
2013-03-19 11:51:00,71.0,70.0,29.92,ESE,112,5.0,5.0,98,0.00,,,0.00,TxWx,2013-03-19 17:51:00,
2013-03-19 11:53:00,71.0,70.0,29.92,ESE,112,3.0,3.0,98,0.00,,,0.00,TxWx,2013-03-19 17:53:00,
2013-03-19 11:55:00,71.0,70.0,29.92,East,90,2.0,3.0,97,0.00,,,0.00,TxWx,2013-03-19 17:55:00,
2013-03-19 11:59:00,72.0,71.0,29.92,SE,135,4.0,4.0,97,0.00,,,0.00,TxWx,2013-03-19 17:59:00,
2013-03-19 12:00:00,71.0,70.0,29.92,SE,135,4.0,4.0,97,0.00,,,0.00,TxWx,2013-03-19 18:00:00,
2013-03-19 12:01:00,72.0,71.0,29.91,East,90,5.0,5.0,97,0.00,,,0.00,TxWx,2013-03-19 18:01:00,
2013-03-19 12:02:00,72.0,71.0,29.91,East,90,6.0,7.0,97,0.00,,,0.00,TxWx,2013-03-19 18:02:00,
2013-03-19 12:04:00,72.0,71.0,29.91,East,90,4.0,4.0,97,0.00,,,0.00,TxWx,2013-03-19 18:04:00,
2013-03-19 12:06:00,72.0,71.0,29.91,ESE,112,5.0,5.0,96,0.00,,,0.00,TxWx,2013-03-19 18:06:00,
2013-03-19 12:08:00,72.0,71.0,29.91,ESE,112,6.0,6.0,96,0.00,,,0.00,TxWx,2013-03-19 18:08:00,
2013-03-19 12:12:00,72.0,70.0,29.91,ESE,112,5.0,5.0,95,0.00,,,0.00,TxWx,2013-03-19 18:12:00,
2013-03-19 12:13:00,73.0,71.0,29.91,East,90,10.0,10.0,95,0.00,,,0.00,TxWx,2013-03-19 18:13:00,
2013-03-19 12:17:00,73.0,71.0,29.91,SE,135,10.0,10.0,93,0.00,,,0.00,TxWx,2013-03-19 18:17:00,
2013-03-19 12:18:00,73.0,71.0,29.91,SE,135,6.0,8.0,93,0.00,,,0.00,TxWx,2013-03-19 18:18:00,
2013-03-19 12:19:00,73.0,71.0,29.91,ESE,112,11.0,11.0,93,0.00,,,0.00,TxWx,2013-03-19 18:19:00,
2013-03-19 12:21:00,73.0,71.0,29.91,East,90,11.0,11.0,93,0.00,,,0.00,TxWx,2013-03-19 18:21:00,
2013-03-19 12:23:00,73.0,71.0,29.90,East,90,6.0,8.0,92,0.00,,,0.00,TxWx,2013-03-19 18:23:00,
2013-03-19 12:24:00,73.0,70.0,29.91,ESE,112,8.0,8.0,92,0.00,,,0.00,TxWx,2013-03-19 18:24:00,
2013-03-19 12:29:00,73.0,70.0,29.90,ESE,112,7.0,7.0,91,0.00,,,0.00,TxWx,2013-03-19 18:29:00,
2013-03-19 12:31:00,73.0,70.0,29.90,East,90,11.0,11.0,91,0.00,,,0.00,TxWx,2013-03-19 18:31:00,
2013-03-19 12:34:00,73.0,70.0,29.90,SE,135,8.0,8.0,90,0.00,,,0.00,TxWx,2013-03-19 18:34:00,
2013-03-19 12:36:00,73.0,70.0,29.90,ESE,112,9.0,9.0,90,0.00,,,0.00,TxWx,2013-03-19 18:36:00,
2013-03-19 12:37:00,73.0,70.0,29.90,SE,135,10.0,11.0,90,0.00,,,0.00,TxWx,2013-03-19 18:37:00,
2013-03-19 12:39:00,73.0,70.0,29.90,ESE,112,11.0,11.0,90,0.00,,,0.00,TxWx,2013-03-19 18:39:00,
2013-03-19 12:42:00,73.0,70.0,29.90,ESE,112,6.0,6.0,89,0.00,,,0.00,TxWx,2013-03-19 18:42:00,
2013-03-19 12:44:00,73.0,69.0,29.89,East,90,8.0,8.0,89,0.00,,,0.00,TxWx,2013-03-19 18:44:00,
2013-03-19 12:45:00,74.0,71.0,29.89,ENE,67,7.0,7.0,89,0.00,,,0.00,TxWx,2013-03-19 18:45:00,
2013-03-19 12:47:00,73.0,69.0,29.89,ESE,112,6.0,8.0,89,0.00,,,0.00,TxWx,2013-03-19 18:47:00,
2013-03-19 12:49:00,73.0,69.0,29.89,ESE,112,10.0,10.0,89,0.00,,,0.00,TxWx,2013-03-19 18:49:00,
2013-03-19 12:52:00,74.0,70.0,29.89,ESE,112,8.0,8.0,89,0.00,,,0.00,TxWx,2013-03-19 18:52:00,
2013-03-19 12:53:00,74.0,70.0,29.89,ESE,112,10.0,10.0,88,0.00,,,0.00,TxWx,2013-03-19 18:53:00,
2013-03-19 12:54:00,73.0,69.0,29.89,ESE,112,10.0,10.0,88,0.00,,,0.00,TxWx,2013-03-19 18:54:00,
2013-03-19 12:58:00,74.0,70.0,29.89,ESE,112,8.0,8.0,89,0.00,,,0.00,TxWx,2013-03-19 18:58:00,
2013-03-19 12:59:00,74.0,70.0,29.89,East,90,7.0,10.0,88,0.00,,,0.00,TxWx,2013-03-19 18:59:00,
2013-03-19 13:01:00,74.0,70.0,29.89,East,90,8.0,8.0,88,0.00,,,0.00,TxWx,2013-03-19 19:01:00,
2013-03-19 13:04:00,73.0,69.0,29.88,ESE,112,11.0,11.0,87,0.00,,,0.00,TxWx,2013-03-19 19:04:00,
2013-03-19 13:05:00,74.0,70.0,29.88,East,90,10.0,10.0,88,0.00,,,0.00,TxWx,2013-03-19 19:05:00,
2013-03-19 13:09:00,74.0,70.0,29.88,ESE,112,11.0,11.0,88,0.00,,,0.00,TxWx,2013-03-19 19:09:00,
2013-03-19 13:11:00,73.0,69.0,29.88,East,90,9.0,9.0,87,0.00,,,0.00,TxWx,2013-03-19 19:11:00,
2013-03-19 13:12:00,74.0,70.0,29.88,East,90,8.0,10.0,88,0.00,,,0.00,TxWx,2013-03-19 19:12:00,
2013-03-19 13:15:00,74.0,70.0,29.88,ESE,112,7.0,7.0,88,0.00,,,0.00,TxWx,2013-03-19 19:15:00,
2013-03-19 13:16:00,73.0,69.0,29.88,East,90,7.0,10.0,87,0.00,,,0.00,TxWx,2013-03-19 19:16:00,
2013-03-19 13:17:00,74.0,70.0,29.88,SE,135,4.0,4.0,88,0.00,,,0.00,TxWx,2013-03-19 19:17:00,
2013-03-19 13:18:00,74.0,70.0,29.87,ESE,112,6.0,6.0,88,0.00,,,0.00,TxWx,2013-03-19 19:18:00,
2013-03-19 13:23:00,73.0,69.0,29.87,SE,135,10.0,10.0,87,0.00,,,0.00,TxWx,2013-03-19 19:23:00,
2013-03-19 13:24:00,73.0,69.0,29.87,ESE,112,9.0,11.0,88,0.00,,,0.00,TxWx,2013-03-19 19:24:00,
2013-03-19 13:29:00,73.0,69.0,29.87,ESE,112,8.0,8.0,88,0.00,,,0.00,TxWx,2013-03-19 19:29:00,
2013-03-19 13:31:00,74.0,70.0,29.87,East,90,8.0,8.0,88,0.00,,,0.00,TxWx,2013-03-19 19:31:00,
2013-03-19 13:34:00,74.0,70.0,29.86,East,90,7.0,8.0,88,0.00,,,0.00,TxWx,2013-03-19 19:34:00,
2013-03-19 13:35:00,73.0,69.0,29.86,ESE,112,11.0,11.0,88,0.00,,,0.00,TxWx,2013-03-19 19:35:00,
2013-03-19 13:36:00,73.0,69.0,29.86,East,90,9.0,9.0,88,0.00,,,0.00,TxWx,2013-03-19 19:36:00,
2013-03-19 13:39:00,73.0,69.0,29.86,ESE,112,8.0,9.0,88,0.00,,,0.00,TxWx,2013-03-19 19:39:00,
2013-03-19 13:40:00,73.0,69.0,29.86,East,90,10.0,10.0,88,0.00,,,0.00,TxWx,2013-03-19 19:40:00,
2013-03-19 13:41:00,73.0,69.0,29.86,SE,135,8.0,9.0,89,0.00,,,0.00,TxWx,2013-03-19 19:41:00,
2013-03-19 13:44:00,73.0,69.0,29.86,SE,135,11.0,11.0,89,0.00,,,0.00,TxWx,2013-03-19 19:44:00,
2013-03-19 13:45:00,73.0,69.0,29.86,SE,135,10.0,11.0,89,0.00,,,0.00,TxWx,2013-03-19 19:45:00,
2013-03-19 13:46:00,73.0,69.0,29.86,ESE,112,11.0,12.0,89,0.00,,,0.00,TxWx,2013-03-19 19:46:00,
2013-03-19 13:50:00,73.0,69.0,29.86,ESE,112,13.0,14.0,88,0.00,,,0.00,TxWx,2013-03-19 19:50:00,
2013-03-19 13:51:00,73.0,69.0,29.85,ESE,112,13.0,13.0,89,0.00,,,0.00,TxWx,2013-03-19 19:51:00,
2013-03-19 13:53:00,73.0,69.0,29.85,SE,135,10.0,10.0,88,0.00,,,0.00,TxWx,2013-03-19 19:53:00,
2013-03-19 13:55:00,73.0,69.0,29.85,ESE,112,13.0,13.0,89,0.00,,,0.00,TxWx,2013-03-19 19:55:00,
2013-03-19 13:56:00,73.0,69.0,29.85,ESE,112,10.0,12.0,89,0.00,,,0.00,TxWx,2013-03-19 19:56:00,
2013-03-19 14:01:00,73.0,69.0,29.85,ESE,112,10.0,11.0,88,0.00,,,0.00,TxWx,2013-03-19 20:01:00,
2013-03-19 14:03:00,73.0,69.0,29.85,SE,135,13.0,13.0,88,0.00,,,0.00,TxWx,2013-03-19 20:03:00,
2013-03-19 14:06:00,73.0,69.0,29.84,SE,135,13.0,14.0,88,0.00,,,0.00,TxWx,2013-03-19 20:06:00,
2013-03-19 14:07:00,73.0,69.0,29.85,ESE,112,10.0,11.0,88,0.00,,,0.00,TxWx,2013-03-19 20:07:00,
2013-03-19 14:08:00,73.0,69.0,29.84,ESE,112,11.0,11.0,88,0.00,,,0.00,TxWx,2013-03-19 20:08:00,
2013-03-19 14:12:00,73.0,69.0,29.84,ESE,112,13.0,13.0,88,0.00,,,0.00,TxWx,2013-03-19 20:12:00,
2013-03-19 14:14:00,73.0,69.0,29.84,ESE,112,12.0,12.0,88,0.00,,,0.00,TxWx,2013-03-19 20:14:00,
2013-03-19 14:16:00,73.0,69.0,29.84,ESE,112,13.0,13.0,88,0.00,,,0.00,TxWx,2013-03-19 20:16:00,
2013-03-19 14:18:00,73.0,69.0,29.84,SE,135,13.0,14.0,88,0.00,,,0.00,TxWx,2013-03-19 20:18:00,
2013-03-19 14:19:00,73.0,69.0,29.84,ESE,112,13.0,13.0,88,0.00,,,0.00,TxWx,2013-03-19 20:19:00,
2013-03-19 14:22:00,73.0,69.0,29.84,ESE,112,13.0,14.0,88,0.00,,,0.00,TxWx,2013-03-19 20:22:00,
2013-03-19 14:23:00,73.0,69.0,29.83,SE,135,14.0,18.0,88,0.00,,,0.00,TxWx,2013-03-19 20:23:00,
2013-03-19 14:25:00,73.0,69.0,29.83,ESE,112,11.0,12.0,88,0.00,,,0.00,TxWx,2013-03-19 20:25:00,
2013-03-19 14:30:00,72.0,68.0,29.83,East,90,13.0,14.0,89,0.00,,,0.00,TxWx,2013-03-19 20:30:00,
2013-03-19 14:31:00,73.0,69.0,29.83,SE,135,13.0,13.0,89,0.00,,,0.00,TxWx,2013-03-19 20:31:00,
2013-03-19 14:35:00,73.0,70.0,29.83,SE,135,8.0,9.0,89,0.00,,,0.00,TxWx,2013-03-19 20:35:00,
2013-03-19 14:36:00,73.0,70.0,29.83,ESE,112,13.0,13.0,90,0.00,,,0.00,TxWx,2013-03-19 20:36:00,
2013-03-19 14:37:00,73.0,70.0,29.83,SE,135,11.0,11.0,90,0.00,,,0.00,TxWx,2013-03-19 20:37:00,
2013-03-19 14:41:00,72.0,69.0,29.82,ESE,112,15.0,16.0,90,0.00,,,0.00,TxWx,2013-03-19 20:41:00,
2013-03-19 14:42:00,72.0,69.0,29.82,ESE,112,14.0,16.0,90,0.00,,,0.00,TxWx,2013-03-19 20:42:00,
2013-03-19 14:47:00,72.0,69.0,29.82,ESE,112,14.0,14.0,90,0.00,,,0.00,TxWx,2013-03-19 20:47:00,
2013-03-19 14:48:00,72.0,69.0,29.82,ESE,112,15.0,16.0,90,0.00,,,0.00,TxWx,2013-03-19 20:48:00,
2013-03-19 14:53:00,72.0,69.0,29.82,ESE,112,16.0,16.0,90,0.00,,,0.00,TxWx,2013-03-19 20:53:00,
2013-03-19 14:59:00,72.0,69.0,29.82,ESE,112,11.0,11.0,90,0.00,,,0.00,TxWx,2013-03-19 20:59:00,
2013-03-19 15:02:00,72.0,69.0,29.81,SE,135,11.0,13.0,90,0.00,,,0.00,TxWx,2013-03-19 21:02:00,
2013-03-19 15:04:00,72.0,69.0,29.81,SSE,157,15.0,15.0,90,0.00,,,0.00,TxWx,2013-03-19 21:04:00,
2013-03-19 15:05:00,72.0,69.0,29.81,East,90,14.0,14.0,90,0.00,,,0.00,TxWx,2013-03-19 21:05:00,
2013-03-19 15:07:00,72.0,69.0,29.81,ESE,112,13.0,13.0,90,0.00,,,0.00,TxWx,2013-03-19 21:07:00,
2013-03-19 15:10:00,72.0,69.0,29.81,ESE,112,8.0,8.0,90,0.00,,,0.00,TxWx,2013-03-19 21:10:00,
2013-03-19 15:11:00,72.0,69.0,29.81,SE,135,9.0,9.0,90,0.00,,,0.00,TxWx,2013-03-19 21:11:00,
2013-03-19 15:15:00,73.0,70.0,29.81,East,90,9.0,11.0,90,0.00,,,0.00,TxWx,2013-03-19 21:15:00,
2013-03-19 15:17:00,72.0,69.0,29.81,East,90,10.0,11.0,90,0.00,,,0.00,TxWx,2013-03-19 21:17:00,
2013-03-19 15:20:00,72.0,69.0,29.81,East,90,13.0,13.0,90,0.00,,,0.00,TxWx,2013-03-19 21:20:00,
2013-03-19 15:21:00,72.0,69.0,29.81,SE,135,10.0,10.0,90,0.00,,,0.00,TxWx,2013-03-19 21:21:00,
2013-03-19 15:22:00,72.0,69.0,29.81,ESE,112,13.0,14.0,90,0.00,,,0.00,TxWx,2013-03-19 21:22:00,
2013-03-19 15:24:00,72.0,69.0,29.81,SE,135,15.0,15.0,90,0.00,,,0.00,TxWx,2013-03-19 21:24:00,
2013-03-19 15:26:00,72.0,69.0,29.80,SE,135,12.0,13.0,90,0.00,,,0.00,TxWx,2013-03-19 21:26:00,
2013-03-19 15:29:00,72.0,69.0,29.80,ESE,112,6.0,8.0,91,0.00,,,0.00,TxWx,2013-03-19 21:29:00,
2013-03-19 15:31:00,72.0,69.0,29.81,ESE,112,8.0,11.0,91,0.00,,,0.00,TxWx,2013-03-19 21:31:00,
2013-03-19 15:34:00,72.0,69.0,29.81,ESE,112,11.0,11.0,91,0.00,,,0.00,TxWx,2013-03-19 21:34:00,
2013-03-19 15:35:00,72.0,69.0,29.81,East,90,11.0,11.0,91,0.00,,,0.00,TxWx,2013-03-19 21:35:00,
2013-03-19 15:37:00,72.0,69.0,29.80,ESE,112,14.0,14.0,91,0.00,,,0.00,TxWx,2013-03-19 21:37:00,
2013-03-19 15:41:00,72.0,69.0,29.81,SE,135,13.0,13.0,91,0.00,,,0.00,TxWx,2013-03-19 21:41:00,
2013-03-19 15:43:00,72.0,69.0,29.80,East,90,10.0,10.0,91,0.00,,,0.00,TxWx,2013-03-19 21:43:00,
2013-03-19 15:48:00,72.0,69.0,29.80,East,90,14.0,14.0,91,0.00,,,0.00,TxWx,2013-03-19 21:48:00,
2013-03-19 15:49:00,72.0,69.0,29.80,ESE,112,14.0,14.0,91,0.00,,,0.00,TxWx,2013-03-19 21:49:00,
2013-03-19 15:54:00,72.0,69.0,29.80,SE,135,11.0,11.0,92,0.00,,,0.00,TxWx,2013-03-19 21:54:00,
2013-03-19 15:56:00,71.0,68.0,29.80,SE,135,14.0,17.0,91,0.00,,,0.00,TxWx,2013-03-19 21:56:00,
2013-03-19 15:59:00,72.0,69.0,29.80,ESE,112,11.0,12.0,91,0.00,,,0.00,TxWx,2013-03-19 21:59:00,
2013-03-19 16:00:00,72.0,69.0,29.80,ESE,112,13.0,14.0,92,0.00,,,0.00,TxWx,2013-03-19 22:00:00,
2013-03-19 16:02:00,72.0,69.0,29.80,SE,135,13.0,14.0,92,0.00,,,0.00,TxWx,2013-03-19 22:02:00,
2013-03-19 16:04:00,72.0,69.0,29.80,ESE,112,10.0,11.0,92,0.00,,,0.00,TxWx,2013-03-19 22:04:00,
2013-03-19 16:05:00,72.0,70.0,29.80,East,90,8.0,10.0,92,0.00,,,0.00,TxWx,2013-03-19 22:05:00,
2013-03-19 16:06:00,72.0,69.0,29.80,ESE,112,13.0,13.0,92,0.00,,,0.00,TxWx,2013-03-19 22:06:00,
2013-03-19 16:08:00,72.0,69.0,29.80,East,90,10.0,10.0,92,0.00,,,0.00,TxWx,2013-03-19 22:08:00,
2013-03-19 16:10:00,72.0,70.0,29.80,ESE,112,14.0,14.0,92,0.00,,,0.00,TxWx,2013-03-19 22:10:00,
2013-03-19 16:11:00,72.0,70.0,29.80,SE,135,9.0,9.0,92,0.00,,,0.00,TxWx,2013-03-19 22:11:00,
2013-03-19 16:13:00,72.0,70.0,29.80,East,90,13.0,13.0,92,0.00,,,0.00,TxWx,2013-03-19 22:13:00,
2013-03-19 16:15:00,72.0,70.0,29.80,ESE,112,7.0,8.0,92,0.00,,,0.00,TxWx,2013-03-19 22:15:00,
2013-03-19 16:19:00,72.0,70.0,29.80,SE,135,13.0,13.0,92,0.00,,,0.00,TxWx,2013-03-19 22:19:00,
2013-03-19 16:20:00,72.0,70.0,29.80,ESE,112,9.0,10.0,93,0.00,,,0.00,TxWx,2013-03-19 22:20:00,
2013-03-19 16:21:00,72.0,70.0,29.80,ESE,112,10.0,11.0,93,0.00,,,0.00,TxWx,2013-03-19 22:21:00,
2013-03-19 16:22:00,71.0,69.0,29.80,East,90,13.0,14.0,93,0.00,,,0.00,TxWx,2013-03-19 22:22:00,
2013-03-19 16:24:00,72.0,70.0,29.80,ESE,112,9.0,9.0,93,0.00,,,0.00,TxWx,2013-03-19 22:24:00,
2013-03-19 16:27:00,72.0,70.0,29.80,East,90,7.0,7.0,93,0.00,,,0.00,TxWx,2013-03-19 22:27:00,
2013-03-19 16:28:00,72.0,70.0,29.80,ESE,112,14.0,14.0,93,0.00,,,0.00,TxWx,2013-03-19 22:28:00,
2013-03-19 16:29:00,71.0,69.0,29.80,East,90,11.0,13.0,93,0.00,,,0.00,TxWx,2013-03-19 22:29:00,
2013-03-19 16:33:00,71.0,69.0,29.80,ESE,112,12.0,13.0,93,0.00,,,0.00,TxWx,2013-03-19 22:33:00,
2013-03-19 16:34:00,71.0,69.0,29.80,East,90,15.0,16.0,93,0.00,,,0.00,TxWx,2013-03-19 22:34:00,
2013-03-19 16:35:00,71.0,69.0,29.80,East,90,15.0,15.0,93,0.00,,,0.00,TxWx,2013-03-19 22:35:00,
2013-03-19 16:36:00,71.0,69.0,29.80,SE,135,13.0,14.0,93,0.00,,,0.00,TxWx,2013-03-19 22:36:00,
2013-03-19 16:39:00,71.0,69.0,29.80,SE,135,11.0,11.0,94,0.00,,,0.00,TxWx,2013-03-19 22:39:00,
2013-03-19 16:42:00,71.0,69.0,29.80,East,90,10.0,12.0,94,0.00,,,0.00,TxWx,2013-03-19 22:42:00,
2013-03-19 16:43:00,71.0,69.0,29.80,East,90,14.0,14.0,94,0.00,,,0.00,TxWx,2013-03-19 22:43:00,
2013-03-19 16:44:00,71.0,69.0,29.80,ESE,112,14.0,14.0,94,0.00,,,0.00,TxWx,2013-03-19 22:44:00,
2013-03-19 16:45:00,71.0,69.0,29.80,East,90,13.0,14.0,94,0.00,,,0.00,TxWx,2013-03-19 22:45:00,
2013-03-19 16:48:00,71.0,69.0,29.80,ESE,112,14.0,15.0,94,0.00,,,0.00,TxWx,2013-03-19 22:48:00,
2013-03-19 16:50:00,71.0,69.0,29.80,East,90,10.0,10.0,94,0.00,,,0.00,TxWx,2013-03-19 22:50:00,
2013-03-19 16:51:00,71.0,69.0,29.80,East,90,12.0,13.0,94,0.00,,,0.00,TxWx,2013-03-19 22:51:00,
2013-03-19 16:53:00,71.0,69.0,29.80,ESE,112,12.0,14.0,94,0.00,,,0.00,TxWx,2013-03-19 22:53:00,
2013-03-19 16:55:00,71.0,69.0,29.80,East,90,11.0,11.0,94,0.00,,,0.00,TxWx,2013-03-19 22:55:00,
2013-03-19 16:56:00,71.0,69.0,29.80,ESE,112,11.0,13.0,95,0.00,,,0.00,TxWx,2013-03-19 22:56:00,
2013-03-19 16:57:00,71.0,69.0,29.80,ENE,67,8.0,8.0,95,0.00,,,0.00,TxWx,2013-03-19 22:57:00,
2013-03-19 16:59:00,71.0,69.0,29.80,East,90,12.0,12.0,95,0.00,,,0.00,TxWx,2013-03-19 22:59:00,
2013-03-19 17:00:00,71.0,69.0,29.80,East,90,8.0,11.0,95,0.00,,,0.00,TxWx,2013-03-19 23:00:00,
2013-03-19 17:04:00,71.0,69.0,29.80,ESE,112,13.0,14.0,95,0.00,,,0.00,TxWx,2013-03-19 23:04:00,
2013-03-19 17:05:00,71.0,69.0,29.80,ESE,112,14.0,14.0,95,0.00,,,0.00,TxWx,2013-03-19 23:05:00,
2013-03-19 17:08:00,71.0,69.0,29.79,East,90,11.0,11.0,95,0.00,,,0.00,TxWx,2013-03-19 23:08:00,
2013-03-19 17:11:00,71.0,69.0,29.80,ESE,112,11.0,16.0,95,0.00,,,0.00,TxWx,2013-03-19 23:11:00,
2013-03-19 17:12:00,71.0,69.0,29.79,East,90,16.0,16.0,95,0.00,,,0.00,TxWx,2013-03-19 23:12:00,
2013-03-19 17:14:00,71.0,69.0,29.79,ESE,112,13.0,15.0,95,0.00,,,0.00,TxWx,2013-03-19 23:14:00,
2013-03-19 17:16:00,71.0,69.0,29.79,SE,135,13.0,13.0,95,0.00,,,0.00,TxWx,2013-03-19 23:16:00,
2013-03-19 17:17:00,71.0,69.0,29.79,ESE,112,13.0,14.0,95,0.00,,,0.00,TxWx,2013-03-19 23:17:00,
2013-03-19 17:21:00,71.0,69.0,29.79,ESE,112,12.0,14.0,95,0.00,,,0.00,TxWx,2013-03-19 23:21:00,
2013-03-19 17:23:00,71.0,69.0,29.79,ESE,112,13.0,13.0,95,0.00,,,0.00,TxWx,2013-03-19 23:23:00,
2013-03-19 17:26:00,71.0,69.0,29.79,ESE,112,12.0,13.0,95,0.00,,,0.00,TxWx,2013-03-19 23:26:00,
2013-03-19 17:28:00,71.0,70.0,29.79,SE,135,11.0,11.0,96,0.00,,,0.00,TxWx,2013-03-19 23:28:00,
2013-03-19 17:29:00,71.0,70.0,29.79,ESE,112,14.0,14.0,96,0.00,,,0.00,TxWx,2013-03-19 23:29:00,
2013-03-19 17:34:00,71.0,70.0,29.79,SE,135,8.0,11.0,96,0.00,,,0.00,TxWx,2013-03-19 23:34:00,
2013-03-19 17:35:00,71.0,70.0,29.79,East,90,14.0,14.0,96,0.00,,,0.00,TxWx,2013-03-19 23:35:00,
2013-03-19 17:40:00,71.0,70.0,29.79,East,90,13.0,14.0,96,0.00,,,0.00,TxWx,2013-03-19 23:40:00,
2013-03-19 17:41:00,71.0,70.0,29.79,ESE,112,11.0,14.0,96,0.00,,,0.00,TxWx,2013-03-19 23:41:00,
2013-03-19 17:46:00,71.0,70.0,29.79,ESE,112,13.0,13.0,96,0.00,,,0.00,TxWx,2013-03-19 23:46:00,
2013-03-19 17:47:00,71.0,70.0,29.79,East,90,11.0,13.0,96,0.00,,,0.00,TxWx,2013-03-19 23:47:00,
2013-03-19 17:51:00,71.0,70.0,29.79,East,90,12.0,14.0,96,0.00,,,0.00,TxWx,2013-03-19 23:51:00,
2013-03-19 17:52:00,71.0,70.0,29.79,East,90,13.0,14.0,96,0.00,,,0.00,TxWx,2013-03-19 23:52:00,
2013-03-19 17:53:00,71.0,70.0,29.79,ESE,112,11.0,12.0,97,0.00,,,0.00,TxWx,2013-03-19 23:53:00,
2013-03-19 17:57:00,71.0,70.0,29.80,ESE,112,13.0,13.0,97,0.00,,,0.00,TxWx,2013-03-19 23:57:00,
2013-03-19 17:58:00,71.0,70.0,29.79,ESE,112,14.0,14.0,97,0.00,,,0.00,TxWx,2013-03-19 23:58:00,
2013-03-19 17:59:00,71.0,70.0,29.80,ESE,112,14.0,16.0,97,0.00,,,0.00,TxWx,2013-03-19 23:59:00,
2013-03-19 18:03:00,71.0,70.0,29.80,ENE,67,11.0,12.0,97,0.00,,,0.00,TxWx,2013-03-20 00:03:00,
2013-03-19 18:04:00,71.0,70.0,29.79,ESE,112,10.0,13.0,97,0.00,,,0.00,TxWx,2013-03-20 00:04:00,
2013-03-19 18:09:00,71.0,70.0,29.79,SE,135,10.0,11.0,97,0.00,,,0.00,TxWx,2013-03-20 00:09:00,
2013-03-19 18:10:00,71.0,70.0,29.80,ESE,112,11.0,11.0,97,0.00,,,0.00,TxWx,2013-03-20 00:10:00,
2013-03-19 18:14:00,71.0,70.0,29.79,East,90,13.0,13.0,97,0.00,,,0.00,TxWx,2013-03-20 00:14:00,
2013-03-19 18:15:00,71.0,70.0,29.79,SE,135,11.0,11.0,97,0.00,,,0.00,TxWx,2013-03-20 00:15:00,
2013-03-19 18:16:00,71.0,70.0,29.79,ESE,112,15.0,15.0,97,0.00,,,0.00,TxWx,2013-03-20 00:16:00,
2013-03-19 18:20:00,71.0,70.0,29.79,ENE,67,7.0,8.0,97,0.00,,,0.00,TxWx,2013-03-20 00:20:00,
2013-03-19 18:21:00,71.0,70.0,29.79,ESE,112,14.0,14.0,97,0.00,,,0.00,TxWx,2013-03-20 00:21:00,
2013-03-19 18:24:00,71.0,70.0,29.79,SE,135,12.0,12.0,98,0.00,,,0.00,TxWx,2013-03-20 00:24:00,
2013-03-19 18:25:00,71.0,70.0,29.79,ESE,112,13.0,13.0,98,0.00,,,0.00,TxWx,2013-03-20 00:25:00,
2013-03-19 18:26:00,71.0,70.0,29.79,East,90,15.0,15.0,98,0.00,,,0.00,TxWx,2013-03-20 00:26:00,
2013-03-19 18:30:00,71.0,70.0,29.79,ESE,112,11.0,12.0,98,0.00,,,0.00,TxWx,2013-03-20 00:30:00,
2013-03-19 18:31:00,71.0,70.0,29.79,East,90,10.0,10.0,98,0.00,,,0.00,TxWx,2013-03-20 00:31:00,
2013-03-19 18:32:00,71.0,70.0,29.79,ESE,112,11.0,14.0,98,0.00,,,0.00,TxWx,2013-03-20 00:32:00,
2013-03-19 18:36:00,70.0,69.0,29.79,East,90,16.0,16.0,98,0.00,,,0.00,TxWx,2013-03-20 00:36:00,
2013-03-19 18:41:00,70.0,69.0,29.79,ESE,112,14.0,17.0,98,0.00,,,0.00,TxWx,2013-03-20 00:41:00,
2013-03-19 18:42:00,70.0,69.0,29.79,ESE,112,12.0,12.0,98,0.00,,,0.00,TxWx,2013-03-20 00:42:00,
2013-03-19 18:46:00,70.0,69.0,29.79,ESE,112,15.0,16.0,98,0.00,,,0.00,TxWx,2013-03-20 00:46:00,
2013-03-19 18:47:00,70.0,69.0,29.79,ESE,112,14.0,14.0,98,0.00,,,0.00,TxWx,2013-03-20 00:47:00,
2013-03-19 18:49:00,70.0,69.0,29.79,SE,135,12.0,13.0,98,0.00,,,0.00,TxWx,2013-03-20 00:49:00,
2013-03-19 18:51:00,70.0,69.0,29.79,East,90,12.0,13.0,98,0.00,,,0.00,TxWx,2013-03-20 00:51:00,
2013-03-19 18:52:00,70.0,69.0,29.79,ESE,112,13.0,13.0,98,0.00,,,0.00,TxWx,2013-03-20 00:52:00,
2013-03-19 18:54:00,70.0,69.0,29.79,East,90,14.0,15.0,98,0.00,,,0.00,TxWx,2013-03-20 00:54:00,
2013-03-19 18:55:00,70.0,69.0,29.79,ESE,112,11.0,12.0,98,0.00,,,0.00,TxWx,2013-03-20 00:55:00,
2013-03-19 18:56:00,70.0,69.0,29.79,East,90,15.0,15.0,98,0.00,,,0.00,TxWx,2013-03-20 00:56:00,
2013-03-19 18:57:00,70.0,69.0,29.79,SE,135,14.0,14.0,98,0.00,,,0.00,TxWx,2013-03-20 00:57:00,
2013-03-19 19:00:00,70.0,70.0,29.80,ENE,67,13.0,13.0,99,0.00,,,0.00,TxWx,2013-03-20 01:00:00,
2013-03-19 19:01:00,70.0,70.0,29.80,East,90,14.0,15.0,99,0.00,,,0.00,TxWx,2013-03-20 01:01:00,
2013-03-19 19:04:00,70.0,70.0,29.80,East,90,17.0,17.0,99,0.00,,,0.00,TxWx,2013-03-20 01:04:00,
2013-03-19 19:05:00,70.0,70.0,29.80,ESE,112,11.0,13.0,99,0.00,,,0.00,TxWx,2013-03-20 01:05:00,
2013-03-19 19:06:00,70.0,70.0,29.80,ESE,112,16.0,16.0,99,0.00,,,0.00,TxWx,2013-03-20 01:06:00,
2013-03-19 19:07:00,70.0,70.0,29.80,ESE,112,17.0,18.0,99,0.00,,,0.00,TxWx,2013-03-20 01:07:00,
2013-03-19 19:10:00,70.0,70.0,29.80,East,90,12.0,12.0,99,0.00,,,0.00,TxWx,2013-03-20 01:10:00,
2013-03-19 19:12:00,70.0,70.0,29.80,East,90,16.0,16.0,99,0.00,,,0.00,TxWx,2013-03-20 01:12:00,
2013-03-19 19:16:00,70.0,70.0,29.80,ESE,112,16.0,16.0,99,0.00,,,0.00,TxWx,2013-03-20 01:16:00,
2013-03-19 19:17:00,70.0,70.0,29.81,ESE,112,14.0,14.0,99,0.00,,,0.00,TxWx,2013-03-20 01:17:00,
2013-03-19 19:18:00,70.0,70.0,29.81,ESE,112,13.0,14.0,99,0.00,,,0.00,TxWx,2013-03-20 01:18:00,
2013-03-19 19:23:00,70.0,70.0,29.81,East,90,16.0,16.0,99,0.00,,,0.00,TxWx,2013-03-20 01:23:00,
2013-03-19 19:27:00,70.0,70.0,29.81,ESE,112,10.0,11.0,99,0.00,,,0.00,TxWx,2013-03-20 01:27:00,
2013-03-19 19:28:00,70.0,70.0,29.81,East,90,9.0,12.0,99,0.00,,,0.00,TxWx,2013-03-20 01:28:00,
2013-03-19 19:29:00,70.0,70.0,29.81,ESE,112,14.0,15.0,99,0.00,,,0.00,TxWx,2013-03-20 01:29:00,
2013-03-19 19:33:00,70.0,70.0,29.81,East,90,13.0,13.0,99,0.00,,,0.00,TxWx,2013-03-20 01:33:00,
2013-03-19 19:34:00,70.0,70.0,29.81,ESE,112,11.0,11.0,99,0.00,,,0.00,TxWx,2013-03-20 01:34:00,
2013-03-19 19:37:00,70.0,70.0,29.81,ESE,112,11.0,11.0,99,0.00,,,0.00,TxWx,2013-03-20 01:37:00,
2013-03-19 19:38:00,70.0,70.0,29.81,ESE,112,9.0,10.0,99,0.00,,,0.00,TxWx,2013-03-20 01:38:00,
2013-03-19 19:41:00,70.0,70.0,29.81,East,90,11.0,11.0,99,0.00,,,0.00,TxWx,2013-03-20 01:41:00,
2013-03-19 19:42:00,70.0,70.0,29.81,East,90,8.0,8.0,99,0.00,,,0.00,TxWx,2013-03-20 01:42:00,
2013-03-19 19:43:00,70.0,70.0,29.81,ESE,112,6.0,6.0,99,0.00,,,0.00,TxWx,2013-03-20 01:43:00,
2013-03-19 19:48:00,70.0,70.0,29.81,East,90,13.0,15.0,99,0.00,,,0.00,TxWx,2013-03-20 01:48:00,
2013-03-19 19:49:00,70.0,70.0,29.82,ESE,112,12.0,12.0,99,0.00,,,0.00,TxWx,2013-03-20 01:49:00,
2013-03-19 19:52:00,70.0,70.0,29.81,ESE,112,11.0,13.0,99,0.00,,,0.00,TxWx,2013-03-20 01:52:00,
2013-03-19 19:53:00,70.0,70.0,29.81,ESE,112,14.0,15.0,99,0.00,,,0.00,TxWx,2013-03-20 01:53:00,
2013-03-19 19:55:00,70.0,70.0,29.81,East,90,11.0,11.0,99,0.00,,,0.00,TxWx,2013-03-20 01:55:00,
2013-03-19 19:56:00,70.0,70.0,29.82,East,90,13.0,13.0,99,0.00,,,0.00,TxWx,2013-03-20 01:56:00,
2013-03-19 19:57:00,70.0,70.0,29.82,SE,135,11.0,11.0,99,0.00,,,0.00,TxWx,2013-03-20 01:57:00,
2013-03-19 20:00:00,70.0,70.0,29.82,SE,135,13.0,13.0,100,0.00,,,0.00,TxWx,2013-03-20 02:00:00,
2013-03-19 20:01:00,70.0,70.0,29.82,ESE,112,9.0,9.0,100,0.00,,,0.00,TxWx,2013-03-20 02:01:00,
2013-03-19 20:02:00,70.0,70.0,29.82,ESE,112,12.0,12.0,100,0.00,,,0.00,TxWx,2013-03-20 02:02:00,
2013-03-19 20:06:00,70.0,70.0,29.82,East,90,8.0,8.0,100,0.00,,,0.00,TxWx,2013-03-20 02:06:00,
2013-03-19 20:07:00,70.0,70.0,29.82,ESE,112,10.0,10.0,100,0.00,,,0.00,TxWx,2013-03-20 02:07:00,
2013-03-19 20:08:00,70.0,70.0,29.82,ESE,112,11.0,12.0,100,0.00,,,0.00,TxWx,2013-03-20 02:08:00,
2013-03-19 20:11:00,70.0,70.0,29.82,SE,135,11.0,11.0,100,0.00,,,0.00,TxWx,2013-03-20 02:11:00,
2013-03-19 20:12:00,70.0,70.0,29.82,ESE,112,10.0,10.0,100,0.00,,,0.00,TxWx,2013-03-20 02:12:00,
2013-03-19 20:14:00,70.0,70.0,29.82,SE,135,10.0,10.0,100,0.00,,,0.00,TxWx,2013-03-20 02:14:00,
2013-03-19 20:16:00,70.0,70.0,29.83,SE,135,8.0,10.0,100,0.00,,,0.00,TxWx,2013-03-20 02:16:00,
2013-03-19 20:18:00,70.0,70.0,29.83,ESE,112,8.0,8.0,100,0.00,,,0.00,TxWx,2013-03-20 02:18:00,
2013-03-19 20:19:00,70.0,70.0,29.82,ESE,112,13.0,13.0,100,0.00,,,0.00,TxWx,2013-03-20 02:19:00,
2013-03-19 20:21:00,70.0,70.0,29.82,ESE,112,14.0,14.0,100,0.00,,,0.00,TxWx,2013-03-20 02:21:00,
2013-03-19 20:22:00,70.0,70.0,29.83,ESE,112,11.0,11.0,100,0.00,,,0.00,TxWx,2013-03-20 02:22:00,
2013-03-19 20:24:00,70.0,70.0,29.82,ESE,112,11.0,11.0,100,0.00,,,0.00,TxWx,2013-03-20 02:24:00,
2013-03-19 20:26:00,70.0,70.0,29.82,ESE,112,7.0,10.0,100,0.00,,,0.00,TxWx,2013-03-20 02:26:00,
2013-03-19 20:28:00,70.0,70.0,29.82,SE,135,10.0,10.0,100,0.00,,,0.00,TxWx,2013-03-20 02:28:00,
2013-03-19 20:31:00,70.0,70.0,29.82,SE,135,11.0,12.0,100,0.00,,,0.00,TxWx,2013-03-20 02:31:00,
2013-03-19 20:33:00,70.0,70.0,29.83,ESE,112,12.0,12.0,100,0.00,,,0.00,TxWx,2013-03-20 02:33:00,
2013-03-19 20:35:00,70.0,70.0,29.82,ESE,112,11.0,11.0,100,0.00,,,0.00,TxWx,2013-03-20 02:35:00,
2013-03-19 20:36:00,70.0,70.0,29.83,SE,135,12.0,12.0,100,0.00,,,0.00,TxWx,2013-03-20 02:36:00,
2013-03-19 20:40:00,70.0,70.0,29.83,ESE,112,10.0,12.0,100,0.00,,,0.00,TxWx,2013-03-20 02:40:00,
2013-03-19 20:41:00,70.0,70.0,29.83,East,90,12.0,15.0,100,0.00,,,0.00,TxWx,2013-03-20 02:41:00,
2013-03-19 20:46:00,70.0,70.0,29.83,ESE,112,11.0,11.0,100,0.00,,,0.00,TxWx,2013-03-20 02:46:00,
2013-03-19 20:47:00,70.0,70.0,29.83,East,90,13.0,13.0,100,0.00,,,0.00,TxWx,2013-03-20 02:47:00,
2013-03-19 20:48:00,70.0,70.0,29.83,ESE,112,14.0,14.0,100,0.00,,,0.00,TxWx,2013-03-20 02:48:00,
2013-03-19 20:51:00,70.0,70.0,29.83,East,90,9.0,10.0,100,0.00,,,0.00,TxWx,2013-03-20 02:51:00,
2013-03-19 20:52:00,70.0,70.0,29.83,East,90,6.0,9.0,100,0.00,,,0.00,TxWx,2013-03-20 02:52:00,
2013-03-19 20:53:00,70.0,70.0,29.83,East,90,7.0,8.0,100,0.00,,,0.00,TxWx,2013-03-20 02:53:00,
2013-03-19 20:54:00,70.0,70.0,29.83,ESE,112,8.0,10.0,100,0.00,,,0.00,TxWx,2013-03-20 02:54:00,
2013-03-19 20:59:00,70.0,70.0,29.83,SE,135,14.0,14.0,100,0.00,,,0.00,TxWx,2013-03-20 02:59:00,
2013-03-19 21:00:00,70.0,70.0,29.85,SE,135,6.0,7.0,100,0.00,,,0.00,TxWx,2013-03-20 03:00:00,
2013-03-19 21:01:00,70.0,70.0,29.83,SE,135,12.0,12.0,100,0.00,,,0.00,TxWx,2013-03-20 03:01:00,
2013-03-19 21:02:00,70.0,70.0,29.85,ESE,112,13.0,14.0,100,0.00,,,0.00,TxWx,2013-03-20 03:02:00,
2013-03-19 21:03:00,70.0,70.0,29.85,SE,135,12.0,12.0,100,0.00,,,0.00,TxWx,2013-03-20 03:03:00,
2013-03-19 21:04:00,70.0,70.0,29.83,ESE,112,11.0,13.0,100,0.00,,,0.00,TxWx,2013-03-20 03:04:00,
2013-03-19 21:05:00,70.0,70.0,29.85,ESE,112,13.0,13.0,100,0.00,,,0.00,TxWx,2013-03-20 03:05:00,
2013-03-19 21:06:00,70.0,70.0,29.84,ESE,112,9.0,10.0,100,0.00,,,0.00,TxWx,2013-03-20 03:06:00,
2013-03-19 21:07:00,70.0,70.0,29.83,SE,135,8.0,9.0,100,0.00,,,0.00,TxWx,2013-03-20 03:07:00,
2013-03-19 21:08:00,70.0,70.0,29.85,SE,135,10.0,11.0,100,0.00,,,0.00,TxWx,2013-03-20 03:08:00,
2013-03-19 21:09:00,70.0,70.0,29.83,SE,135,8.0,8.0,100,0.00,,,0.00,TxWx,2013-03-20 03:09:00,
2013-03-19 21:10:00,70.0,70.0,29.83,ESE,112,13.0,13.0,100,0.00,,,0.00,TxWx,2013-03-20 03:10:00,
2013-03-19 21:11:00,70.0,70.0,29.85,ESE,112,10.0,10.0,100,0.00,,,0.00,TxWx,2013-03-20 03:11:00,
2013-03-19 21:12:00,70.0,70.0,29.85,ESE,112,11.0,13.0,100,0.00,,,0.00,TxWx,2013-03-20 03:12:00,
2013-03-19 21:13:00,70.0,70.0,29.85,SE,135,12.0,12.0,100,0.00,,,0.00,TxWx,2013-03-20 03:13:00,
2013-03-19 21:14:00,70.0,70.0,29.83,ESE,112,12.0,13.0,100,0.00,,,0.00,TxWx,2013-03-20 03:14:00,
2013-03-19 21:15:00,70.0,70.0,29.83,East,90,10.0,11.0,100,0.00,,,0.00,TxWx,2013-03-20 03:15:00,
2013-03-19 21:16:00,70.0,70.0,29.85,ESE,112,15.0,15.0,100,0.00,,,0.00,TxWx,2013-03-20 03:16:00,
2013-03-19 21:17:00,70.0,70.0,29.83,SE,135,9.0,9.0,100,0.00,,,0.00,TxWx,2013-03-20 03:17:00,
2013-03-19 21:18:00,70.0,70.0,29.83,SE,135,13.0,13.0,100,0.00,,,0.00,TxWx,2013-03-20 03:18:00,
2013-03-19 21:19:00,70.0,70.0,29.85,ESE,112,8.0,10.0,100,0.00,,,0.00,TxWx,2013-03-20 03:19:00,
2013-03-19 21:20:00,70.0,70.0,29.85,SE,135,13.0,13.0,100,0.00,,,0.00,TxWx,2013-03-20 03:20:00,
2013-03-19 21:21:00,70.0,70.0,29.86,ESE,112,11.0,12.0,100,0.00,,,0.00,TxWx,2013-03-20 03:21:00,
2013-03-19 21:22:00,70.0,70.0,29.83,SE,135,7.0,8.0,100,0.00,,,0.00,TxWx,2013-03-20 03:22:00,
2013-03-19 21:23:00,70.0,70.0,29.83,SE,135,10.0,11.0,100,0.00,,,0.00,TxWx,2013-03-20 03:23:00,
2013-03-19 21:24:00,70.0,70.0,29.83,ESE,112,13.0,13.0,100,0.00,,,0.00,TxWx,2013-03-20 03:24:00,
2013-03-19 21:25:00,70.0,70.0,29.83,SE,135,11.0,11.0,100,0.00,,,0.00,TxWx,2013-03-20 03:25:00,
2013-03-19 21:26:00,70.0,70.0,29.86,East,90,7.0,8.0,100,0.00,,,0.00,TxWx,2013-03-20 03:26:00,
2013-03-19 21:28:00,70.0,70.0,29.84,SE,135,13.0,13.0,100,0.00,,,0.00,TxWx,2013-03-20 03:28:00,
2013-03-19 21:29:00,70.0,70.0,29.84,ESE,112,9.0,10.0,100,0.00,,,0.00,TxWx,2013-03-20 03:29:00,
2013-03-19 21:30:00,70.0,70.0,29.84,ESE,112,10.0,13.0,100,0.00,,,0.00,TxWx,2013-03-20 03:30:00,
2013-03-19 21:32:00,70.0,70.0,29.84,SE,135,11.0,12.0,100,0.00,,,0.00,TxWx,2013-03-20 03:32:00,
2013-03-19 21:34:00,70.0,70.0,29.84,ESE,112,14.0,14.0,100,0.00,,,0.00,TxWx,2013-03-20 03:34:00,
2013-03-19 21:35:00,70.0,70.0,29.84,East,90,11.0,11.0,100,0.00,,,0.00,TxWx,2013-03-20 03:35:00,
2013-03-19 21:36:00,70.0,70.0,29.86,ESE,112,10.0,10.0,100,0.00,,,0.00,TxWx,2013-03-20 03:36:00,
2013-03-19 21:37:00,70.0,70.0,29.84,East,90,10.0,10.0,100,0.00,,,0.00,TxWx,2013-03-20 03:37:00,
2013-03-19 21:38:00,70.0,70.0,29.84,East,90,12.0,12.0,100,0.00,,,0.00,TxWx,2013-03-20 03:38:00,
2013-03-19 21:39:00,70.0,70.0,29.84,ESE,112,10.0,12.0,100,0.00,,,0.00,TxWx,2013-03-20 03:39:00,
2013-03-19 21:41:00,70.0,70.0,29.86,SE,135,10.0,11.0,100,0.00,,,0.00,TxWx,2013-03-20 03:41:00,
2013-03-19 21:42:00,70.0,70.0,29.85,East,90,10.0,11.0,100,0.00,,,0.00,TxWx,2013-03-20 03:42:00,
2013-03-19 21:44:00,70.0,70.0,29.85,ESE,112,13.0,13.0,100,0.00,,,0.00,TxWx,2013-03-20 03:44:00,
2013-03-19 21:46:00,70.0,70.0,29.84,SE,135,10.0,12.0,100,0.00,,,0.00,TxWx,2013-03-20 03:46:00,
2013-03-19 21:48:00,70.0,70.0,29.84,ESE,112,11.0,13.0,100,0.00,,,0.00,TxWx,2013-03-20 03:48:00,
2013-03-19 21:51:00,70.0,70.0,29.84,ESE,112,9.0,10.0,100,0.00,,,0.00,TxWx,2013-03-20 03:51:00,
2013-03-19 21:53:00,70.0,70.0,29.84,East,90,12.0,13.0,100,0.00,,,0.00,TxWx,2013-03-20 03:53:00,
2013-03-19 21:55:00,70.0,70.0,29.85,SE,135,11.0,11.0,100,0.00,,,0.00,TxWx,2013-03-20 03:55:00,
2013-03-19 21:56:00,70.0,70.0,29.85,ESE,112,13.0,14.0,100,0.00,,,0.00,TxWx,2013-03-20 03:56:00,
2013-03-19 21:57:00,70.0,70.0,29.86,East,90,10.0,14.0,100,0.00,,,0.00,TxWx,2013-03-20 03:57:00,
2013-03-19 21:58:00,70.0,70.0,29.87,ESE,112,13.0,13.0,100,0.00,,,0.00,TxWx,2013-03-20 03:58:00,
2013-03-19 21:59:00,70.0,70.0,29.85,ESE,112,10.0,10.0,100,0.00,,,0.00,TxWx,2013-03-20 03:59:00,
2013-03-19 22:23:00,70.0,70.0,29.86,East,90,14.0,15.0,100,0.00,,,0.00,TxWx,2013-03-20 04:23:00,
2013-03-19 22:25:00,70.0,70.0,29.86,SE,135,11.0,11.0,100,0.00,,,0.00,TxWx,2013-03-20 04:25:00,
2013-03-19 22:27:00,70.0,70.0,29.86,ESE,112,13.0,13.0,100,0.00,,,0.00,TxWx,2013-03-20 04:27:00,
2013-03-19 22:31:00,69.0,69.0,29.86,East,90,12.0,12.0,100,0.00,,,0.00,TxWx,2013-03-20 04:31:00,
2013-03-19 22:32:00,69.0,69.0,29.86,ESE,112,13.0,13.0,100,0.00,,,0.00,TxWx,2013-03-20 04:32:00,
2013-03-19 22:36:00,70.0,70.0,29.86,SE,135,8.0,10.0,100,0.00,,,0.00,TxWx,2013-03-20 04:36:00,
2013-03-19 22:37:00,70.0,70.0,29.86,ESE,112,11.0,12.0,100,0.00,,,0.00,TxWx,2013-03-20 04:37:00,
2013-03-19 22:38:00,69.0,69.0,29.86,East,90,10.0,10.0,100,0.00,,,0.00,TxWx,2013-03-20 04:38:00,
2013-03-19 22:41:00,70.0,70.0,29.86,ESE,112,9.0,10.0,100,0.00,,,0.00,TxWx,2013-03-20 04:41:00,
2013-03-19 22:42:00,70.0,70.0,29.86,ESE,112,13.0,13.0,100,0.00,,,0.00,TxWx,2013-03-20 04:42:00,
2013-03-19 22:43:00,69.0,69.0,29.86,SE,135,12.0,12.0,100,0.00,,,0.00,TxWx,2013-03-20 04:43:00,
2013-03-19 22:47:00,70.0,70.0,29.87,ESE,112,12.0,12.0,100,0.00,,,0.00,TxWx,2013-03-20 04:47:00,
2013-03-19 22:48:00,70.0,70.0,29.86,East,90,11.0,11.0,100,0.00,,,0.00,TxWx,2013-03-20 04:48:00,
2013-03-19 22:49:00,70.0,70.0,29.86,East,90,13.0,13.0,100,0.00,,,0.00,TxWx,2013-03-20 04:49:00,
2013-03-19 22:54:00,70.0,70.0,29.86,East,90,8.0,11.0,100,0.00,,,0.00,TxWx,2013-03-20 04:54:00,
2013-03-19 22:57:00,70.0,70.0,29.87,East,90,10.0,13.0,100,0.00,,,0.00,TxWx,2013-03-20 04:57:00,
2013-03-19 22:59:00,70.0,70.0,29.86,East,90,10.0,11.0,100,0.00,,,0.00,TxWx,2013-03-20 04:59:00,
2013-03-19 23:00:00,70.0,70.0,29.86,ESE,112,11.0,11.0,100,0.00,,,0.00,TxWx,2013-03-20 05:00:00,
2013-03-19 23:02:00,70.0,70.0,29.86,ESE,112,13.0,13.0,100,0.00,,,0.00,TxWx,2013-03-20 05:02:00,
2013-03-19 23:05:00,70.0,70.0,29.87,ESE,112,11.0,11.0,100,0.00,,,0.00,TxWx,2013-03-20 05:05:00,
2013-03-19 23:10:00,70.0,70.0,29.87,ESE,112,12.0,14.0,100,0.00,,,0.00,TxWx,2013-03-20 05:10:00,
2013-03-19 23:11:00,70.0,70.0,29.87,ESE,112,13.0,13.0,100,0.00,,,0.00,TxWx,2013-03-20 05:11:00,
2013-03-19 23:15:00,70.0,70.0,29.87,ESE,112,10.0,10.0,100,0.00,,,0.00,TxWx,2013-03-20 05:15:00,
2013-03-19 23:16:00,70.0,70.0,29.87,ESE,112,11.0,11.0,100,0.00,,,0.00,TxWx,2013-03-20 05:16:00,
2013-03-19 23:17:00,70.0,70.0,29.87,East,90,11.0,11.0,100,0.00,,,0.00,TxWx,2013-03-20 05:17:00,
2013-03-19 23:19:00,70.0,70.0,29.87,ESE,112,8.0,8.0,100,0.00,,,0.00,TxWx,2013-03-20 05:19:00,
2013-03-19 23:22:00,70.0,70.0,29.86,SE,135,16.0,16.0,100,0.00,,,0.00,TxWx,2013-03-20 05:22:00,
2013-03-19 23:27:00,70.0,70.0,29.86,East,90,11.0,11.0,100,0.00,,,0.00,TxWx,2013-03-20 05:27:00,
2013-03-19 23:28:00,70.0,70.0,29.86,ESE,112,14.0,16.0,100,0.00,,,0.00,TxWx,2013-03-20 05:28:00,
2013-03-19 23:30:00,70.0,70.0,29.86,ESE,112,13.0,14.0,100,0.00,,,0.00,TxWx,2013-03-20 05:30:00,
2013-03-19 23:31:00,70.0,70.0,29.86,ESE,112,11.0,11.0,100,0.00,,,0.00,TxWx,2013-03-20 05:31:00,
2013-03-19 23:33:00,70.0,70.0,29.86,ESE,112,12.0,13.0,100,0.00,,,0.00,TxWx,2013-03-20 05:33:00,
2013-03-19 23:35:00,70.0,70.0,29.86,ESE,112,13.0,13.0,100,0.00,,,0.00,TxWx,2013-03-20 05:35:00,
2013-03-19 23:38:00,69.0,69.0,29.86,ESE,112,14.0,14.0,100,0.00,,,0.00,TxWx,2013-03-20 05:38:00,
2013-03-19 23:39:00,70.0,70.0,29.86,ESE,112,14.0,14.0,100,0.00,,,0.00,TxWx,2013-03-20 05:39:00,
2013-03-19 23:41:00,69.0,69.0,29.86,East,90,12.0,14.0,100,0.00,,,0.00,TxWx,2013-03-20 05:41:00,
2013-03-19 23:42:00,69.0,69.0,29.86,East,90,16.0,16.0,100,0.00,,,0.00,TxWx,2013-03-20 05:42:00,
2013-03-19 23:45:00,69.0,69.0,29.86,East,90,13.0,13.0,100,0.00,,,0.00,TxWx,2013-03-20 05:45:00,
2013-03-19 23:47:00,69.0,69.0,29.86,East,90,14.0,14.0,100,0.00,,,0.00,TxWx,2013-03-20 05:47:00,
2013-03-19 23:52:00,69.0,69.0,29.86,East,90,13.0,13.0,100,0.00,,,0.00,TxWx,2013-03-20 05:52:00,
2013-03-19 23:53:00,69.0,69.0,29.86,ESE,112,14.0,14.0,100,0.00,,,0.00,TxWx,2013-03-20 05:53:00,
2013-03-19 23:57:00,69.0,69.0,29.86,ESE,112,10.0,14.0,100,0.00,,,0.00,TxWx,2013-03-20 05:57:00,
2013-03-19 23:58:00,69.0,69.0,29.86,East,90,11.0,13.0,100,0.00,,,0.00,TxWx,2013-03-20 05:58:00,
2013-03-19 23:59:00,69.0,69.0,29.86,East,90,14.0,14.0,100,0.00,,,0.00,TxWx,2013-03-20 05:59:00,